<?xml version="1.0" encoding="UTF-8" standalone="no" ?>
<gpx xmlns="http://www.topografix.com/GPX/1/1" xmlns:xsi="http://www.w3.org/2001/XMLSchema-instance" xsi:schemaLocation="http://www.topografix.com/GPX/1/1 http://www.topografix.com/GPX/1/1/gpx.xsd" version="1.1" creator="VisuGPX - https://www.visugpx.com">
  <metadata>
    <name>München 2</name>
  </metadata>
  <trk>
    <name><![CDATA[München 2]]></name>
    <extensions>
      <line xmlns="http://www.topografix.com/GPX/gpx_style/0/2">
        <color>0000FF</color>
        <width>4</width>
      </line>
    </extensions>
    <trkseg>
      <trkpt lat="48.13304" lon="11.56793">
        <ele>489.245046</ele>
        <time>2021-08-11T11:57:56.000Z</time>
      </trkpt>
      <trkpt lat="48.13299" lon="11.56786">
        <ele>489.245046</ele>
        <time>2021-08-11T11:57:58.000Z</time>
      </trkpt>
      <trkpt lat="48.13299" lon="11.56746">
        <ele>489.245046</ele>
        <time>2021-08-11T11:57:59.000Z</time>
      </trkpt>
      <trkpt lat="48.13302" lon="11.56783">
        <ele>489.245046</ele>
        <time>2021-08-11T11:58:03.000Z</time>
      </trkpt>
      <trkpt lat="48.13313" lon="11.56783">
        <ele>489.245046</ele>
        <time>2021-08-11T11:58:07.000Z</time>
      </trkpt>
      <trkpt lat="48.1333" lon="11.56773">
        <ele>489.245046</ele>
        <time>2021-08-11T11:58:11.000Z</time>
      </trkpt>
      <trkpt lat="48.13341" lon="11.56771">
        <ele>489.279698</ele>
        <time>2021-08-11T11:58:15.000Z</time>
      </trkpt>
      <trkpt lat="48.13343" lon="11.5677">
        <ele>489.286852</ele>
        <time>2021-08-11T11:58:16.000Z</time>
      </trkpt>
      <trkpt lat="48.13348" lon="11.56765">
        <ele>489.313141</ele>
        <time>2021-08-11T11:58:22.000Z</time>
      </trkpt>
      <trkpt lat="48.13349" lon="11.56773">
        <ele>489.336102</ele>
        <time>2021-08-11T11:58:28.000Z</time>
      </trkpt>
      <trkpt lat="48.13349" lon="11.56773">
        <ele>489.337437</ele>
        <time>2021-08-11T11:58:31.000Z</time>
      </trkpt>
      <trkpt lat="48.1335" lon="11.56773">
        <ele>489.341375</ele>
        <time>2021-08-11T11:58:36.000Z</time>
      </trkpt>
      <trkpt lat="48.1335" lon="11.56774">
        <ele>489.343243</ele>
        <time>2021-08-11T11:58:49.000Z</time>
      </trkpt>
      <trkpt lat="48.1335" lon="11.56776">
        <ele>489.348375</ele>
        <time>2021-08-11T11:58:56.000Z</time>
      </trkpt>
      <trkpt lat="48.13351" lon="11.56776">
        <ele>489.351585</ele>
        <time>2021-08-11T11:58:58.000Z</time>
      </trkpt>
      <trkpt lat="48.13355" lon="11.56778">
        <ele>489.370773</ele>
        <time>2021-08-11T11:59:01.000Z</time>
      </trkpt>
      <trkpt lat="48.1336" lon="11.5678">
        <ele>489.392388</ele>
        <time>2021-08-11T11:59:03.000Z</time>
      </trkpt>
      <trkpt lat="48.13369" lon="11.56781">
        <ele>489.428195</ele>
        <time>2021-08-11T11:59:06.000Z</time>
      </trkpt>
      <trkpt lat="48.13372" lon="11.5678">
        <ele>489.440176</ele>
        <time>2021-08-11T11:59:07.000Z</time>
      </trkpt>
      <trkpt lat="48.13373" lon="11.56778">
        <ele>489.445506</ele>
        <time>2021-08-11T11:59:10.000Z</time>
      </trkpt>
      <trkpt lat="48.13374" lon="11.56778">
        <ele>489.450311</ele>
        <time>2021-08-11T11:59:14.000Z</time>
      </trkpt>
      <trkpt lat="48.13378" lon="11.56779">
        <ele>489.46596</ele>
        <time>2021-08-11T11:59:17.000Z</time>
      </trkpt>
      <trkpt lat="48.13379" lon="11.56773">
        <ele>489.483448</ele>
        <time>2021-08-11T11:59:20.000Z</time>
      </trkpt>
      <trkpt lat="48.13379" lon="11.56769">
        <ele>489.492317</ele>
        <time>2021-08-11T11:59:21.000Z</time>
      </trkpt>
      <trkpt lat="48.13372" lon="11.56742">
        <ele>489.569898</ele>
        <time>2021-08-11T11:59:28.000Z</time>
      </trkpt>
      <trkpt lat="48.13368" lon="11.56726">
        <ele>489.615988</ele>
        <time>2021-08-11T11:59:32.000Z</time>
      </trkpt>
      <trkpt lat="48.1337" lon="11.56719">
        <ele>489.6371</ele>
        <time>2021-08-11T11:59:34.000Z</time>
      </trkpt>
      <trkpt lat="48.13376" lon="11.56714">
        <ele>489.665292</ele>
        <time>2021-08-11T11:59:37.000Z</time>
      </trkpt>
      <trkpt lat="48.1338" lon="11.56709">
        <ele>489.68547</ele>
        <time>2021-08-11T11:59:39.000Z</time>
      </trkpt>
      <trkpt lat="48.13382" lon="11.56702">
        <ele>489.704458</ele>
        <time>2021-08-11T11:59:41.000Z</time>
      </trkpt>
      <trkpt lat="48.13379" lon="11.56696">
        <ele>489.724707</ele>
        <time>2021-08-11T11:59:43.000Z</time>
      </trkpt>
      <trkpt lat="48.13377" lon="11.56682">
        <ele>489.763996</ele>
        <time>2021-08-11T11:59:48.000Z</time>
      </trkpt>
      <trkpt lat="48.13376" lon="11.56679">
        <ele>489.770338</ele>
        <time>2021-08-11T11:59:49.000Z</time>
      </trkpt>
      <trkpt lat="48.13376" lon="11.56677">
        <ele>489.776263</ele>
        <time>2021-08-11T11:59:50.000Z</time>
      </trkpt>
      <trkpt lat="48.13377" lon="11.56674">
        <ele>489.786762</ele>
        <time>2021-08-11T11:59:52.000Z</time>
      </trkpt>
      <trkpt lat="48.13387" lon="11.56666">
        <ele>489.831835</ele>
        <time>2021-08-11T11:59:58.000Z</time>
      </trkpt>
      <trkpt lat="48.13392" lon="11.56661">
        <ele>489.856394</ele>
        <time>2021-08-11T12:00:01.000Z</time>
      </trkpt>
      <trkpt lat="48.13395" lon="11.56659">
        <ele>489.869048</ele>
        <time>2021-08-11T12:00:03.000Z</time>
      </trkpt>
      <trkpt lat="48.13398" lon="11.56658">
        <ele>489.881534</ele>
        <time>2021-08-11T12:00:05.000Z</time>
      </trkpt>
      <trkpt lat="48.13402" lon="11.56657">
        <ele>489.898004</ele>
        <time>2021-08-11T12:00:08.000Z</time>
      </trkpt>
      <trkpt lat="48.13404" lon="11.56656">
        <ele>489.905042</ele>
        <time>2021-08-11T12:00:09.000Z</time>
      </trkpt>
      <trkpt lat="48.13411" lon="11.5665">
        <ele>489.93729</ele>
        <time>2021-08-11T12:00:14.000Z</time>
      </trkpt>
      <trkpt lat="48.13413" lon="11.56647">
        <ele>489.948826</ele>
        <time>2021-08-11T12:00:16.000Z</time>
      </trkpt>
      <trkpt lat="48.13425" lon="11.56639">
        <ele>489.949388</ele>
        <time>2021-08-11T12:00:22.000Z</time>
      </trkpt>
      <trkpt lat="48.13442" lon="11.56624">
        <ele>489.915574</ele>
        <time>2021-08-11T12:00:29.000Z</time>
      </trkpt>
      <trkpt lat="48.13458" lon="11.56611">
        <ele>489.885411</ele>
        <time>2021-08-11T12:00:34.000Z</time>
      </trkpt>
      <trkpt lat="48.13483" lon="11.56596">
        <ele>489.841317</ele>
        <time>2021-08-11T12:00:41.000Z</time>
      </trkpt>
      <trkpt lat="48.13503" lon="11.56583">
        <ele>489.804266</ele>
        <time>2021-08-11T12:00:46.000Z</time>
      </trkpt>
      <trkpt lat="48.13523" lon="11.56574">
        <ele>489.770135</ele>
        <time>2021-08-11T12:00:51.000Z</time>
      </trkpt>
      <trkpt lat="48.13541" lon="11.56562">
        <ele>489.736666</ele>
        <time>2021-08-11T12:00:57.000Z</time>
      </trkpt>
      <trkpt lat="48.13548" lon="11.56559">
        <ele>489.725446</ele>
        <time>2021-08-11T12:01:00.000Z</time>
      </trkpt>
      <trkpt lat="48.1355" lon="11.56556">
        <ele>489.720507</ele>
        <time>2021-08-11T12:01:02.000Z</time>
      </trkpt>
      <trkpt lat="48.13553" lon="11.56553">
        <ele>489.71445</ele>
        <time>2021-08-11T12:01:05.000Z</time>
      </trkpt>
      <trkpt lat="48.13555" lon="11.56552">
        <ele>489.711136</ele>
        <time>2021-08-11T12:01:07.000Z</time>
      </trkpt>
      <trkpt lat="48.13561" lon="11.56546">
        <ele>489.698537</ele>
        <time>2021-08-11T12:01:11.000Z</time>
      </trkpt>
      <trkpt lat="48.13563" lon="11.56545">
        <ele>489.695362</ele>
        <time>2021-08-11T12:01:12.000Z</time>
      </trkpt>
      <trkpt lat="48.13567" lon="11.56541">
        <ele>489.687376</ele>
        <time>2021-08-11T12:01:14.000Z</time>
      </trkpt>
      <trkpt lat="48.13576" lon="11.56539">
        <ele>489.672293</ele>
        <time>2021-08-11T12:01:16.000Z</time>
      </trkpt>
      <trkpt lat="48.13588" lon="11.56535">
        <ele>489.673908</ele>
        <time>2021-08-11T12:01:19.000Z</time>
      </trkpt>
      <trkpt lat="48.13599" lon="11.56531">
        <ele>489.687399</ele>
        <time>2021-08-11T12:01:22.000Z</time>
      </trkpt>
      <trkpt lat="48.13607" lon="11.56528">
        <ele>489.696573</ele>
        <time>2021-08-11T12:01:24.000Z</time>
      </trkpt>
      <trkpt lat="48.13631" lon="11.56525">
        <ele>489.724601</ele>
        <time>2021-08-11T12:01:29.000Z</time>
      </trkpt>
      <trkpt lat="48.1364" lon="11.56526">
        <ele>489.734584</ele>
        <time>2021-08-11T12:01:31.000Z</time>
      </trkpt>
      <trkpt lat="48.13649" lon="11.56523">
        <ele>489.745316</ele>
        <time>2021-08-11T12:01:33.000Z</time>
      </trkpt>
      <trkpt lat="48.13668" lon="11.56516">
        <ele>489.767976</ele>
        <time>2021-08-11T12:01:38.000Z</time>
      </trkpt>
      <trkpt lat="48.13669" lon="11.56519">
        <ele>489.770522</ele>
        <time>2021-08-11T12:01:39.000Z</time>
      </trkpt>
      <trkpt lat="48.13671" lon="11.56521">
        <ele>489.773429</ele>
        <time>2021-08-11T12:01:41.000Z</time>
      </trkpt>
      <trkpt lat="48.13671" lon="11.56521">
        <ele>489.773584</ele>
        <time>2021-08-11T12:01:42.000Z</time>
      </trkpt>
      <trkpt lat="48.13675" lon="11.56521">
        <ele>489.778003</ele>
        <time>2021-08-11T12:01:49.000Z</time>
      </trkpt>
      <trkpt lat="48.13674" lon="11.56521">
        <ele>489.778561</ele>
        <time>2021-08-11T12:01:51.000Z</time>
      </trkpt>
      <trkpt lat="48.13674" lon="11.56522">
        <ele>489.77904</ele>
        <time>2021-08-11T12:01:53.000Z</time>
      </trkpt>
      <trkpt lat="48.13675" lon="11.56522">
        <ele>489.780397</ele>
        <time>2021-08-11T12:02:10.000Z</time>
      </trkpt>
      <trkpt lat="48.13676" lon="11.56523">
        <ele>489.780978</ele>
        <time>2021-08-11T12:02:11.000Z</time>
      </trkpt>
      <trkpt lat="48.13678" lon="11.56523">
        <ele>489.783215</ele>
        <time>2021-08-11T12:02:12.000Z</time>
      </trkpt>
      <trkpt lat="48.13683" lon="11.56524">
        <ele>489.789713</ele>
        <time>2021-08-11T12:02:15.000Z</time>
      </trkpt>
      <trkpt lat="48.13685" lon="11.56524">
        <ele>489.791647</ele>
        <time>2021-08-11T12:02:16.000Z</time>
      </trkpt>
      <trkpt lat="48.13689" lon="11.56528">
        <ele>489.797994</ele>
        <time>2021-08-11T12:02:19.000Z</time>
      </trkpt>
      <trkpt lat="48.13694" lon="11.56528">
        <ele>489.803351</ele>
        <time>2021-08-11T12:02:21.000Z</time>
      </trkpt>
      <trkpt lat="48.13711" lon="11.5653">
        <ele>489.822675</ele>
        <time>2021-08-11T12:02:26.000Z</time>
      </trkpt>
      <trkpt lat="48.13733" lon="11.56531">
        <ele>489.848221</ele>
        <time>2021-08-11T12:02:32.000Z</time>
      </trkpt>
      <trkpt lat="48.13737" lon="11.56532">
        <ele>489.853103</ele>
        <time>2021-08-11T12:02:33.000Z</time>
      </trkpt>
      <trkpt lat="48.13754" lon="11.56533">
        <ele>489.872728</ele>
        <time>2021-08-11T12:02:38.000Z</time>
      </trkpt>
      <trkpt lat="48.13773" lon="11.56534">
        <ele>489.942822</ele>
        <time>2021-08-11T12:02:44.000Z</time>
      </trkpt>
      <trkpt lat="48.13791" lon="11.56543">
        <ele>490.012529</ele>
        <time>2021-08-11T12:02:50.000Z</time>
      </trkpt>
      <trkpt lat="48.13797" lon="11.56544">
        <ele>490.035166</ele>
        <time>2021-08-11T12:02:52.000Z</time>
      </trkpt>
      <trkpt lat="48.13803" lon="11.56543">
        <ele>490.057275</ele>
        <time>2021-08-11T12:02:54.000Z</time>
      </trkpt>
      <trkpt lat="48.13816" lon="11.56544">
        <ele>490.105025</ele>
        <time>2021-08-11T12:02:58.000Z</time>
      </trkpt>
      <trkpt lat="48.13828" lon="11.56543">
        <ele>490.149772</ele>
        <time>2021-08-11T12:03:02.000Z</time>
      </trkpt>
      <trkpt lat="48.13836" lon="11.56546">
        <ele>490.182796</ele>
        <time>2021-08-11T12:03:05.000Z</time>
      </trkpt>
      <trkpt lat="48.13852" lon="11.56554">
        <ele>490.243831</ele>
        <time>2021-08-11T12:03:09.000Z</time>
      </trkpt>
      <trkpt lat="48.13869" lon="11.56555">
        <ele>490.30882</ele>
        <time>2021-08-11T12:03:13.000Z</time>
      </trkpt>
      <trkpt lat="48.13891" lon="11.56569">
        <ele>490.395093</ele>
        <time>2021-08-11T12:03:18.000Z</time>
      </trkpt>
      <trkpt lat="48.13909" lon="11.56569">
        <ele>490.461861</ele>
        <time>2021-08-11T12:03:24.000Z</time>
      </trkpt>
      <trkpt lat="48.1393" lon="11.56582">
        <ele>490.539186</ele>
        <time>2021-08-11T12:03:31.000Z</time>
      </trkpt>
      <trkpt lat="48.13937" lon="11.56587">
        <ele>490.502276</ele>
        <time>2021-08-11T12:03:33.000Z</time>
      </trkpt>
      <trkpt lat="48.13952" lon="11.56602">
        <ele>490.411517</ele>
        <time>2021-08-11T12:03:38.000Z</time>
      </trkpt>
      <trkpt lat="48.13976" lon="11.5663">
        <ele>490.260754</ele>
        <time>2021-08-11T12:03:46.000Z</time>
      </trkpt>
      <trkpt lat="48.13983" lon="11.56643">
        <ele>490.202268</ele>
        <time>2021-08-11T12:03:49.000Z</time>
      </trkpt>
      <trkpt lat="48.13989" lon="11.56651">
        <ele>490.164257</ele>
        <time>2021-08-11T12:03:51.000Z</time>
      </trkpt>
      <trkpt lat="48.13996" lon="11.56664">
        <ele>490.108289</ele>
        <time>2021-08-11T12:03:54.000Z</time>
      </trkpt>
      <trkpt lat="48.14001" lon="11.56672">
        <ele>490.07106</ele>
        <time>2021-08-11T12:03:56.000Z</time>
      </trkpt>
      <trkpt lat="48.14007" lon="11.5668">
        <ele>490.033278</ele>
        <time>2021-08-11T12:03:58.000Z</time>
      </trkpt>
      <trkpt lat="48.14018" lon="11.56692">
        <ele>489.961393</ele>
        <time>2021-08-11T12:04:03.000Z</time>
      </trkpt>
      <trkpt lat="48.14021" lon="11.56697">
        <ele>489.940663</ele>
        <time>2021-08-11T12:04:05.000Z</time>
      </trkpt>
      <trkpt lat="48.14022" lon="11.56701">
        <ele>489.926037</ele>
        <time>2021-08-11T12:04:07.000Z</time>
      </trkpt>
      <trkpt lat="48.14021" lon="11.56701">
        <ele>489.922404</ele>
        <time>2021-08-11T12:04:10.000Z</time>
      </trkpt>
      <trkpt lat="48.14022" lon="11.56701">
        <ele>489.918535</ele>
        <time>2021-08-11T12:04:15.000Z</time>
      </trkpt>
      <trkpt lat="48.14024" lon="11.56701">
        <ele>489.908688</ele>
        <time>2021-08-11T12:04:19.000Z</time>
      </trkpt>
      <trkpt lat="48.14024" lon="11.56701">
        <ele>489.906665</ele>
        <time>2021-08-11T12:04:23.000Z</time>
      </trkpt>
      <trkpt lat="48.14024" lon="11.567">
        <ele>489.905465</ele>
        <time>2021-08-11T12:04:25.000Z</time>
      </trkpt>
      <trkpt lat="48.14024" lon="11.567">
        <ele>489.903968</ele>
        <time>2021-08-11T12:04:28.000Z</time>
      </trkpt>
      <trkpt lat="48.14024" lon="11.56701">
        <ele>489.90297</ele>
        <time>2021-08-11T12:04:33.000Z</time>
      </trkpt>
      <trkpt lat="48.14024" lon="11.56701">
        <ele>489.902637</ele>
        <time>2021-08-11T12:04:40.000Z</time>
      </trkpt>
      <trkpt lat="48.14024" lon="11.567">
        <ele>489.902304</ele>
        <time>2021-08-11T12:04:44.000Z</time>
      </trkpt>
      <trkpt lat="48.14028" lon="11.56702">
        <ele>489.881466</ele>
        <time>2021-08-11T12:04:56.000Z</time>
      </trkpt>
      <trkpt lat="48.14032" lon="11.5671">
        <ele>489.851826</ele>
        <time>2021-08-11T12:04:58.000Z</time>
      </trkpt>
      <trkpt lat="48.14036" lon="11.56737">
        <ele>489.758643</ele>
        <time>2021-08-11T12:05:03.000Z</time>
      </trkpt>
      <trkpt lat="48.14038" lon="11.56775">
        <ele>489.625022</ele>
        <time>2021-08-11T12:05:09.000Z</time>
      </trkpt>
      <trkpt lat="48.14055" lon="11.56817">
        <ele>489.411347</ele>
        <time>2021-08-11T12:05:17.000Z</time>
      </trkpt>
      <trkpt lat="48.1406" lon="11.56831">
        <ele>489.340211</ele>
        <time>2021-08-11T12:05:20.000Z</time>
      </trkpt>
      <trkpt lat="48.14067" lon="11.56852">
        <ele>489.239416</ele>
        <time>2021-08-11T12:05:24.000Z</time>
      </trkpt>
      <trkpt lat="48.14071" lon="11.56866">
        <ele>489.171441</ele>
        <time>2021-08-11T12:05:27.000Z</time>
      </trkpt>
      <trkpt lat="48.14076" lon="11.56882">
        <ele>489.093646</ele>
        <time>2021-08-11T12:05:30.000Z</time>
      </trkpt>
      <trkpt lat="48.14079" lon="11.56891">
        <ele>489.050254</ele>
        <time>2021-08-11T12:05:32.000Z</time>
      </trkpt>
      <trkpt lat="48.14081" lon="11.569">
        <ele>489.008695</ele>
        <time>2021-08-11T12:05:34.000Z</time>
      </trkpt>
      <trkpt lat="48.14083" lon="11.56905">
        <ele>488.984277</ele>
        <time>2021-08-11T12:05:36.000Z</time>
      </trkpt>
      <trkpt lat="48.14084" lon="11.56907">
        <ele>488.973675</ele>
        <time>2021-08-11T12:05:37.000Z</time>
      </trkpt>
      <trkpt lat="48.14085" lon="11.56908">
        <ele>488.964226</ele>
        <time>2021-08-11T12:05:40.000Z</time>
      </trkpt>
      <trkpt lat="48.14085" lon="11.5691">
        <ele>488.955003</ele>
        <time>2021-08-11T12:05:47.000Z</time>
      </trkpt>
      <trkpt lat="48.14085" lon="11.5691">
        <ele>488.952057</ele>
        <time>2021-08-11T12:05:49.000Z</time>
      </trkpt>
      <trkpt lat="48.14084" lon="11.56911">
        <ele>488.947851</ele>
        <time>2021-08-11T12:05:57.000Z</time>
      </trkpt>
      <trkpt lat="48.14084" lon="11.56911">
        <ele>488.946382</ele>
        <time>2021-08-11T12:06:01.000Z</time>
      </trkpt>
      <trkpt lat="48.14086" lon="11.56913">
        <ele>488.930887</ele>
        <time>2021-08-11T12:06:16.000Z</time>
      </trkpt>
      <trkpt lat="48.14086" lon="11.56916">
        <ele>488.917054</ele>
        <time>2021-08-11T12:06:23.000Z</time>
      </trkpt>
      <trkpt lat="48.14086" lon="11.56916">
        <ele>488.917054</ele>
        <time>2021-08-11T12:06:25.000Z</time>
      </trkpt>
      <trkpt lat="48.14086" lon="11.56916">
        <ele>488.917054</ele>
        <time>2021-08-11T12:06:27.000Z</time>
      </trkpt>
      <trkpt lat="48.14085" lon="11.56917">
        <ele>488.907364</ele>
        <time>2021-08-11T12:07:02.000Z</time>
      </trkpt>
      <trkpt lat="48.14085" lon="11.56917">
        <ele>488.906575</ele>
        <time>2021-08-11T12:07:06.000Z</time>
      </trkpt>
      <trkpt lat="48.14085" lon="11.56917">
        <ele>488.905918</ele>
        <time>2021-08-11T12:07:14.000Z</time>
      </trkpt>
      <trkpt lat="48.14085" lon="11.56917">
        <ele>488.905918</ele>
        <time>2021-08-11T12:07:17.000Z</time>
      </trkpt>
      <trkpt lat="48.14086" lon="11.56919">
        <ele>488.890742</ele>
        <time>2021-08-11T12:07:19.000Z</time>
      </trkpt>
      <trkpt lat="48.14089" lon="11.56927">
        <ele>488.853792</ele>
        <time>2021-08-11T12:07:21.000Z</time>
      </trkpt>
      <trkpt lat="48.14099" lon="11.56957">
        <ele>488.705198</ele>
        <time>2021-08-11T12:07:27.000Z</time>
      </trkpt>
      <trkpt lat="48.14101" lon="11.56963">
        <ele>488.674208</ele>
        <time>2021-08-11T12:07:28.000Z</time>
      </trkpt>
      <trkpt lat="48.14108" lon="11.56984">
        <ele>488.574008</ele>
        <time>2021-08-11T12:07:32.000Z</time>
      </trkpt>
      <trkpt lat="48.14115" lon="11.57002">
        <ele>488.48179</ele>
        <time>2021-08-11T12:07:35.000Z</time>
      </trkpt>
      <trkpt lat="48.14117" lon="11.57008">
        <ele>488.465609</ele>
        <time>2021-08-11T12:07:36.000Z</time>
      </trkpt>
      <trkpt lat="48.1412" lon="11.57019">
        <ele>488.464651</ele>
        <time>2021-08-11T12:07:38.000Z</time>
      </trkpt>
      <trkpt lat="48.14122" lon="11.57025">
        <ele>488.464116</ele>
        <time>2021-08-11T12:07:39.000Z</time>
      </trkpt>
      <trkpt lat="48.14127" lon="11.57037">
        <ele>488.463025</ele>
        <time>2021-08-11T12:07:41.000Z</time>
      </trkpt>
      <trkpt lat="48.14132" lon="11.5705">
        <ele>488.46181</ele>
        <time>2021-08-11T12:07:43.000Z</time>
      </trkpt>
      <trkpt lat="48.14136" lon="11.57062">
        <ele>488.460723</ele>
        <time>2021-08-11T12:07:45.000Z</time>
      </trkpt>
      <trkpt lat="48.14138" lon="11.57068">
        <ele>488.460202</ele>
        <time>2021-08-11T12:07:46.000Z</time>
      </trkpt>
      <trkpt lat="48.14141" lon="11.57081">
        <ele>488.459135</ele>
        <time>2021-08-11T12:07:48.000Z</time>
      </trkpt>
      <trkpt lat="48.14146" lon="11.57092">
        <ele>488.458098</ele>
        <time>2021-08-11T12:07:50.000Z</time>
      </trkpt>
      <trkpt lat="48.14148" lon="11.57095">
        <ele>488.457745</ele>
        <time>2021-08-11T12:07:51.000Z</time>
      </trkpt>
      <trkpt lat="48.14158" lon="11.57115">
        <ele>488.455761</ele>
        <time>2021-08-11T12:07:55.000Z</time>
      </trkpt>
      <trkpt lat="48.14168" lon="11.57162">
        <ele>488.451816</ele>
        <time>2021-08-11T12:08:02.000Z</time>
      </trkpt>
      <trkpt lat="48.14185" lon="11.5722">
        <ele>488.446791</ele>
        <time>2021-08-11T12:08:11.000Z</time>
      </trkpt>
      <trkpt lat="48.14199" lon="11.57273">
        <ele>488.423675</ele>
        <time>2021-08-11T12:08:19.000Z</time>
      </trkpt>
      <trkpt lat="48.14211" lon="11.57303">
        <ele>488.396363</ele>
        <time>2021-08-11T12:08:24.000Z</time>
      </trkpt>
      <trkpt lat="48.14217" lon="11.57314">
        <ele>488.385815</ele>
        <time>2021-08-11T12:08:26.000Z</time>
      </trkpt>
      <trkpt lat="48.14222" lon="11.57322">
        <ele>488.377104</ele>
        <time>2021-08-11T12:08:28.000Z</time>
      </trkpt>
      <trkpt lat="48.14231" lon="11.57332">
        <ele>488.363484</ele>
        <time>2021-08-11T12:08:31.000Z</time>
      </trkpt>
      <trkpt lat="48.14257" lon="11.57354">
        <ele>488.329506</ele>
        <time>2021-08-11T12:08:38.000Z</time>
      </trkpt>
      <trkpt lat="48.14272" lon="11.57365">
        <ele>488.310339</ele>
        <time>2021-08-11T12:08:43.000Z</time>
      </trkpt>
      <trkpt lat="48.14282" lon="11.57371">
        <ele>488.29692</ele>
        <time>2021-08-11T12:08:47.000Z</time>
      </trkpt>
      <trkpt lat="48.1429" lon="11.57376">
        <ele>488.287472</ele>
        <time>2021-08-11T12:08:52.000Z</time>
      </trkpt>
      <trkpt lat="48.1429" lon="11.57376">
        <ele>488.287472</ele>
        <time>2021-08-11T12:09:03.000Z</time>
      </trkpt>
      <trkpt lat="48.1429" lon="11.57376">
        <ele>488.287472</ele>
        <time>2021-08-11T12:09:06.000Z</time>
      </trkpt>
      <trkpt lat="48.1429" lon="11.57376">
        <ele>488.287472</ele>
        <time>2021-08-11T12:09:13.000Z</time>
      </trkpt>
      <trkpt lat="48.14293" lon="11.57375">
        <ele>488.28421</ele>
        <time>2021-08-11T12:09:20.000Z</time>
      </trkpt>
      <trkpt lat="48.14311" lon="11.57377">
        <ele>488.262844</ele>
        <time>2021-08-11T12:09:26.000Z</time>
      </trkpt>
      <trkpt lat="48.14318" lon="11.5738">
        <ele>488.254834</ele>
        <time>2021-08-11T12:09:31.000Z</time>
      </trkpt>
      <trkpt lat="48.14318" lon="11.5738">
        <ele>488.254834</ele>
        <time>2021-08-11T12:09:35.000Z</time>
      </trkpt>
      <trkpt lat="48.14318" lon="11.5738">
        <ele>488.254834</ele>
        <time>2021-08-11T12:09:38.000Z</time>
      </trkpt>
      <trkpt lat="48.14319" lon="11.57382">
        <ele>488.252768</ele>
        <time>2021-08-11T12:09:42.000Z</time>
      </trkpt>
      <trkpt lat="48.14319" lon="11.57382">
        <ele>488.252768</ele>
        <time>2021-08-11T12:09:43.000Z</time>
      </trkpt>
      <trkpt lat="48.14319" lon="11.57382">
        <ele>488.252768</ele>
        <time>2021-08-11T12:09:52.000Z</time>
      </trkpt>
      <trkpt lat="48.14319" lon="11.57382">
        <ele>488.252768</ele>
        <time>2021-08-11T12:09:53.000Z</time>
      </trkpt>
      <trkpt lat="48.14319" lon="11.57382">
        <ele>488.252768</ele>
        <time>2021-08-11T12:09:59.000Z</time>
      </trkpt>
      <trkpt lat="48.14319" lon="11.57382">
        <ele>488.252768</ele>
        <time>2021-08-11T12:10:06.000Z</time>
      </trkpt>
      <trkpt lat="48.14319" lon="11.57382">
        <ele>488.252768</ele>
        <time>2021-08-11T12:10:11.000Z</time>
      </trkpt>
      <trkpt lat="48.14319" lon="11.57382">
        <ele>488.252768</ele>
        <time>2021-08-11T12:10:13.000Z</time>
      </trkpt>
      <trkpt lat="48.14321" lon="11.57383">
        <ele>488.249857</ele>
        <time>2021-08-11T12:10:16.000Z</time>
      </trkpt>
      <trkpt lat="48.14326" lon="11.57384">
        <ele>488.244051</ele>
        <time>2021-08-11T12:10:18.000Z</time>
      </trkpt>
      <trkpt lat="48.14335" lon="11.57384">
        <ele>488.229204</ele>
        <time>2021-08-11T12:10:22.000Z</time>
      </trkpt>
      <trkpt lat="48.14338" lon="11.57386">
        <ele>488.219148</ele>
        <time>2021-08-11T12:10:24.000Z</time>
      </trkpt>
      <trkpt lat="48.14343" lon="11.57387">
        <ele>488.205373</ele>
        <time>2021-08-11T12:10:27.000Z</time>
      </trkpt>
      <trkpt lat="48.14344" lon="11.57385">
        <ele>488.198884</ele>
        <time>2021-08-11T12:10:29.000Z</time>
      </trkpt>
      <trkpt lat="48.14345" lon="11.57384">
        <ele>488.19707</ele>
        <time>2021-08-11T12:10:33.000Z</time>
      </trkpt>
      <trkpt lat="48.14345" lon="11.57384">
        <ele>488.196404</ele>
        <time>2021-08-11T12:10:35.000Z</time>
      </trkpt>
      <trkpt lat="48.14345" lon="11.57384">
        <ele>488.196404</ele>
        <time>2021-08-11T12:10:36.000Z</time>
      </trkpt>
      <trkpt lat="48.14345" lon="11.57384">
        <ele>488.196205</ele>
        <time>2021-08-11T12:10:40.000Z</time>
      </trkpt>
      <trkpt lat="48.14345" lon="11.57384">
        <ele>488.196205</ele>
        <time>2021-08-11T12:10:45.000Z</time>
      </trkpt>
      <trkpt lat="48.14345" lon="11.57384">
        <ele>488.196205</ele>
        <time>2021-08-11T12:10:48.000Z</time>
      </trkpt>
      <trkpt lat="48.14345" lon="11.57384">
        <ele>488.196205</ele>
        <time>2021-08-11T12:10:50.000Z</time>
      </trkpt>
      <trkpt lat="48.14345" lon="11.57384">
        <ele>488.196205</ele>
        <time>2021-08-11T12:10:52.000Z</time>
      </trkpt>
      <trkpt lat="48.14346" lon="11.57377">
        <ele>488.182362</ele>
        <time>2021-08-11T12:11:08.000Z</time>
      </trkpt>
      <trkpt lat="48.14346" lon="11.57374">
        <ele>488.175106</ele>
        <time>2021-08-11T12:11:09.000Z</time>
      </trkpt>
      <trkpt lat="48.14353" lon="11.57348">
        <ele>488.119808</ele>
        <time>2021-08-11T12:11:15.000Z</time>
      </trkpt>
      <trkpt lat="48.14362" lon="11.573">
        <ele>488.021805</ele>
        <time>2021-08-11T12:11:23.000Z</time>
      </trkpt>
      <trkpt lat="48.14375" lon="11.57253">
        <ele>487.918549</ele>
        <time>2021-08-11T12:11:31.000Z</time>
      </trkpt>
      <trkpt lat="48.14384" lon="11.57225">
        <ele>487.858668</ele>
        <time>2021-08-11T12:11:35.000Z</time>
      </trkpt>
      <trkpt lat="48.14391" lon="11.57205">
        <ele>487.812927</ele>
        <time>2021-08-11T12:11:38.000Z</time>
      </trkpt>
      <trkpt lat="48.14393" lon="11.572">
        <ele>487.800521</ele>
        <time>2021-08-11T12:11:39.000Z</time>
      </trkpt>
      <trkpt lat="48.14402" lon="11.57192">
        <ele>487.768865</ele>
        <time>2021-08-11T12:11:42.000Z</time>
      </trkpt>
      <trkpt lat="48.14415" lon="11.57196">
        <ele>487.728994</ele>
        <time>2021-08-11T12:11:46.000Z</time>
      </trkpt>
      <trkpt lat="48.1442" lon="11.57198">
        <ele>487.715323</ele>
        <time>2021-08-11T12:11:47.000Z</time>
      </trkpt>
      <trkpt lat="48.14433" lon="11.57207">
        <ele>487.667765</ele>
        <time>2021-08-11T12:11:50.000Z</time>
      </trkpt>
      <trkpt lat="48.14456" lon="11.57224">
        <ele>487.576105</ele>
        <time>2021-08-11T12:11:55.000Z</time>
      </trkpt>
      <trkpt lat="48.14469" lon="11.57234">
        <ele>487.525334</ele>
        <time>2021-08-11T12:11:58.000Z</time>
      </trkpt>
      <trkpt lat="48.14482" lon="11.57243">
        <ele>487.472199</ele>
        <time>2021-08-11T12:12:01.000Z</time>
      </trkpt>
      <trkpt lat="48.14491" lon="11.57249">
        <ele>487.43718</ele>
        <time>2021-08-11T12:12:03.000Z</time>
      </trkpt>
      <trkpt lat="48.14503" lon="11.57256">
        <ele>487.391441</ele>
        <time>2021-08-11T12:12:06.000Z</time>
      </trkpt>
      <trkpt lat="48.1452" lon="11.57268">
        <ele>487.324618</ele>
        <time>2021-08-11T12:12:11.000Z</time>
      </trkpt>
      <trkpt lat="48.14551" lon="11.57292">
        <ele>487.203407</ele>
        <time>2021-08-11T12:12:17.000Z</time>
      </trkpt>
      <trkpt lat="48.14575" lon="11.57307">
        <ele>487.109668</ele>
        <time>2021-08-11T12:12:22.000Z</time>
      </trkpt>
      <trkpt lat="48.14582" lon="11.57314">
        <ele>487.080535</ele>
        <time>2021-08-11T12:12:24.000Z</time>
      </trkpt>
      <trkpt lat="48.14588" lon="11.57321">
        <ele>487.055402</ele>
        <time>2021-08-11T12:12:27.000Z</time>
      </trkpt>
      <trkpt lat="48.14591" lon="11.57323">
        <ele>487.047907</ele>
        <time>2021-08-11T12:12:29.000Z</time>
      </trkpt>
      <trkpt lat="48.14592" lon="11.57322">
        <ele>487.045535</ele>
        <time>2021-08-11T12:12:31.000Z</time>
      </trkpt>
      <trkpt lat="48.14594" lon="11.57319">
        <ele>487.038547</ele>
        <time>2021-08-11T12:12:32.000Z</time>
      </trkpt>
      <trkpt lat="48.14596" lon="11.57317">
        <ele>487.032473</ele>
        <time>2021-08-11T12:12:34.000Z</time>
      </trkpt>
      <trkpt lat="48.14603" lon="11.57322">
        <ele>487.014518</ele>
        <time>2021-08-11T12:12:38.000Z</time>
      </trkpt>
      <trkpt lat="48.14607" lon="11.57314">
        <ele>486.997873</ele>
        <time>2021-08-11T12:12:43.000Z</time>
      </trkpt>
      <trkpt lat="48.14607" lon="11.57314">
        <ele>486.997873</ele>
        <time>2021-08-11T12:12:50.000Z</time>
      </trkpt>
      <trkpt lat="48.14607" lon="11.57314">
        <ele>486.997873</ele>
        <time>2021-08-11T12:12:51.000Z</time>
      </trkpt>
      <trkpt lat="48.14607" lon="11.57314">
        <ele>486.997873</ele>
        <time>2021-08-11T12:12:58.000Z</time>
      </trkpt>
      <trkpt lat="48.14607" lon="11.57314">
        <ele>486.997373</ele>
        <time>2021-08-11T12:13:02.000Z</time>
      </trkpt>
      <trkpt lat="48.1461" lon="11.57319">
        <ele>486.987897</ele>
        <time>2021-08-11T12:13:04.000Z</time>
      </trkpt>
      <trkpt lat="48.14613" lon="11.57329">
        <ele>486.969556</ele>
        <time>2021-08-11T12:13:09.000Z</time>
      </trkpt>
      <trkpt lat="48.14615" lon="11.57331">
        <ele>486.964712</ele>
        <time>2021-08-11T12:13:11.000Z</time>
      </trkpt>
      <trkpt lat="48.14627" lon="11.57342">
        <ele>486.931282</ele>
        <time>2021-08-11T12:13:16.000Z</time>
      </trkpt>
      <trkpt lat="48.14656" lon="11.57359">
        <ele>486.858726</ele>
        <time>2021-08-11T12:13:23.000Z</time>
      </trkpt>
      <trkpt lat="48.14679" lon="11.57374">
        <ele>486.798204</ele>
        <time>2021-08-11T12:13:29.000Z</time>
      </trkpt>
      <trkpt lat="48.14687" lon="11.57378">
        <ele>486.777857</ele>
        <time>2021-08-11T12:13:31.000Z</time>
      </trkpt>
      <trkpt lat="48.14691" lon="11.5738">
        <ele>486.767183</ele>
        <time>2021-08-11T12:13:32.000Z</time>
      </trkpt>
      <trkpt lat="48.147" lon="11.57385">
        <ele>486.745977</ele>
        <time>2021-08-11T12:13:34.000Z</time>
      </trkpt>
      <trkpt lat="48.1471" lon="11.57391">
        <ele>486.718985</ele>
        <time>2021-08-11T12:13:37.000Z</time>
      </trkpt>
      <trkpt lat="48.14713" lon="11.57393">
        <ele>486.711213</ele>
        <time>2021-08-11T12:13:38.000Z</time>
      </trkpt>
      <trkpt lat="48.14728" lon="11.57399">
        <ele>486.675676</ele>
        <time>2021-08-11T12:13:43.000Z</time>
      </trkpt>
      <trkpt lat="48.14741" lon="11.57406">
        <ele>486.642097</ele>
        <time>2021-08-11T12:13:47.000Z</time>
      </trkpt>
      <trkpt lat="48.1476" lon="11.57416">
        <ele>486.618592</ele>
        <time>2021-08-11T12:13:52.000Z</time>
      </trkpt>
      <trkpt lat="48.14779" lon="11.57427">
        <ele>486.597535</ele>
        <time>2021-08-11T12:13:57.000Z</time>
      </trkpt>
      <trkpt lat="48.14786" lon="11.57434">
        <ele>486.588933</ele>
        <time>2021-08-11T12:13:59.000Z</time>
      </trkpt>
      <trkpt lat="48.14793" lon="11.5744">
        <ele>486.581081</ele>
        <time>2021-08-11T12:14:01.000Z</time>
      </trkpt>
      <trkpt lat="48.14801" lon="11.57446">
        <ele>486.571799</ele>
        <time>2021-08-11T12:14:04.000Z</time>
      </trkpt>
      <trkpt lat="48.14809" lon="11.57447">
        <ele>486.563412</ele>
        <time>2021-08-11T12:14:08.000Z</time>
      </trkpt>
      <trkpt lat="48.1481" lon="11.57449">
        <ele>486.561924</ele>
        <time>2021-08-11T12:14:12.000Z</time>
      </trkpt>
      <trkpt lat="48.1481" lon="11.57449">
        <ele>486.561924</ele>
        <time>2021-08-11T12:14:25.000Z</time>
      </trkpt>
      <trkpt lat="48.1481" lon="11.57449">
        <ele>486.561924</ele>
        <time>2021-08-11T12:14:26.000Z</time>
      </trkpt>
      <trkpt lat="48.1481" lon="11.57449">
        <ele>486.56171</ele>
        <time>2021-08-11T12:14:29.000Z</time>
      </trkpt>
      <trkpt lat="48.14811" lon="11.57446">
        <ele>486.560068</ele>
        <time>2021-08-11T12:14:30.000Z</time>
      </trkpt>
      <trkpt lat="48.14816" lon="11.5744">
        <ele>486.553589</ele>
        <time>2021-08-11T12:14:33.000Z</time>
      </trkpt>
      <trkpt lat="48.1482" lon="11.57437">
        <ele>486.548999</ele>
        <time>2021-08-11T12:14:35.000Z</time>
      </trkpt>
      <trkpt lat="48.14821" lon="11.57434">
        <ele>486.546503</ele>
        <time>2021-08-11T12:14:36.000Z</time>
      </trkpt>
      <trkpt lat="48.14825" lon="11.57427">
        <ele>486.540227</ele>
        <time>2021-08-11T12:14:39.000Z</time>
      </trkpt>
      <trkpt lat="48.14833" lon="11.5742">
        <ele>486.530561</ele>
        <time>2021-08-11T12:14:44.000Z</time>
      </trkpt>
      <trkpt lat="48.14835" lon="11.57419">
        <ele>486.529074</ele>
        <time>2021-08-11T12:14:45.000Z</time>
      </trkpt>
      <trkpt lat="48.14835" lon="11.57418">
        <ele>486.528735</ele>
        <time>2021-08-11T12:14:50.000Z</time>
      </trkpt>
      <trkpt lat="48.14835" lon="11.57419">
        <ele>486.528037</ele>
        <time>2021-08-11T12:14:56.000Z</time>
      </trkpt>
      <trkpt lat="48.14835" lon="11.57419">
        <ele>486.527792</ele>
        <time>2021-08-11T12:14:58.000Z</time>
      </trkpt>
      <trkpt lat="48.14835" lon="11.57419">
        <ele>486.527792</ele>
        <time>2021-08-11T12:15:00.000Z</time>
      </trkpt>
      <trkpt lat="48.14834" lon="11.5742">
        <ele>486.526879</ele>
        <time>2021-08-11T12:15:13.000Z</time>
      </trkpt>
      <trkpt lat="48.14835" lon="11.57421">
        <ele>486.525802</ele>
        <time>2021-08-11T12:15:15.000Z</time>
      </trkpt>
      <trkpt lat="48.14856" lon="11.5742">
        <ele>486.504613</ele>
        <time>2021-08-11T12:18:35.000Z</time>
      </trkpt>
      <trkpt lat="48.14858" lon="11.57412">
        <ele>486.498819</ele>
        <time>2021-08-11T12:18:41.000Z</time>
      </trkpt>
      <trkpt lat="48.14857" lon="11.57409">
        <ele>486.497362</ele>
        <time>2021-08-11T12:18:43.000Z</time>
      </trkpt>
      <trkpt lat="48.14853" lon="11.57414">
        <ele>486.49211</ele>
        <time>2021-08-11T12:18:53.000Z</time>
      </trkpt>
      <trkpt lat="48.14853" lon="11.57415">
        <ele>486.491431</ele>
        <time>2021-08-11T12:18:54.000Z</time>
      </trkpt>
      <trkpt lat="48.14854" lon="11.57416">
        <ele>486.490471</ele>
        <time>2021-08-11T12:18:58.000Z</time>
      </trkpt>
      <trkpt lat="48.14854" lon="11.57416">
        <ele>486.490064</ele>
        <time>2021-08-11T12:19:00.000Z</time>
      </trkpt>
      <trkpt lat="48.14853" lon="11.57406">
        <ele>486.482845</ele>
        <time>2021-08-11T12:19:06.000Z</time>
      </trkpt>
      <trkpt lat="48.14852" lon="11.574">
        <ele>486.478883</ele>
        <time>2021-08-11T12:19:08.000Z</time>
      </trkpt>
      <trkpt lat="48.14852" lon="11.57398">
        <ele>486.477725</ele>
        <time>2021-08-11T12:19:11.000Z</time>
      </trkpt>
      <trkpt lat="48.14851" lon="11.57394">
        <ele>486.474408</ele>
        <time>2021-08-11T12:19:16.000Z</time>
      </trkpt>
      <trkpt lat="48.14851" lon="11.57389">
        <ele>486.471513</ele>
        <time>2021-08-11T12:19:21.000Z</time>
      </trkpt>
      <trkpt lat="48.14844" lon="11.5739">
        <ele>486.465278</ele>
        <time>2021-08-11T12:19:26.000Z</time>
      </trkpt>
      <trkpt lat="48.14844" lon="11.57389">
        <ele>486.464182</ele>
        <time>2021-08-11T12:19:31.000Z</time>
      </trkpt>
      <trkpt lat="48.14838" lon="11.57383">
        <ele>486.456853</ele>
        <time>2021-08-11T12:19:37.000Z</time>
      </trkpt>
      <trkpt lat="48.14836" lon="11.57376">
        <ele>486.454664</ele>
        <time>2021-08-11T12:19:43.000Z</time>
      </trkpt>
      <trkpt lat="48.14829" lon="11.57381">
        <ele>486.466092</ele>
        <time>2021-08-11T12:19:49.000Z</time>
      </trkpt>
      <trkpt lat="48.14832" lon="11.5738">
        <ele>486.470267</ele>
        <time>2021-08-11T12:19:52.000Z</time>
      </trkpt>
      <trkpt lat="48.14832" lon="11.5738">
        <ele>486.471007</ele>
        <time>2021-08-11T12:19:56.000Z</time>
      </trkpt>
      <trkpt lat="48.14831" lon="11.57382">
        <ele>486.473146</ele>
        <time>2021-08-11T12:20:04.000Z</time>
      </trkpt>
      <trkpt lat="48.14831" lon="11.57383">
        <ele>486.474286</ele>
        <time>2021-08-11T12:20:05.000Z</time>
      </trkpt>
      <trkpt lat="48.14833" lon="11.57386">
        <ele>486.478905</ele>
        <time>2021-08-11T12:20:12.000Z</time>
      </trkpt>
      <trkpt lat="48.14833" lon="11.57393">
        <ele>486.4853</ele>
        <time>2021-08-11T12:20:20.000Z</time>
      </trkpt>
      <trkpt lat="48.14834" lon="11.57396">
        <ele>486.489272</ele>
        <time>2021-08-11T12:20:27.000Z</time>
      </trkpt>
      <trkpt lat="48.14835" lon="11.57399">
        <ele>486.492194</ele>
        <time>2021-08-11T12:20:33.000Z</time>
      </trkpt>
      <trkpt lat="48.14834" lon="11.57405">
        <ele>486.499183</ele>
        <time>2021-08-11T12:20:38.000Z</time>
      </trkpt>
      <trkpt lat="48.14834" lon="11.57406">
        <ele>486.500125</ele>
        <time>2021-08-11T12:20:39.000Z</time>
      </trkpt>
      <trkpt lat="48.14835" lon="11.57407">
        <ele>486.502838</ele>
        <time>2021-08-11T12:20:43.000Z</time>
      </trkpt>
      <trkpt lat="48.14837" lon="11.57405">
        <ele>486.506596</ele>
        <time>2021-08-11T12:20:44.000Z</time>
      </trkpt>
      <trkpt lat="48.1484" lon="11.57402">
        <ele>486.511295</ele>
        <time>2021-08-11T12:20:45.000Z</time>
      </trkpt>
      <trkpt lat="48.14842" lon="11.574">
        <ele>486.515689</ele>
        <time>2021-08-11T12:20:46.000Z</time>
      </trkpt>
      <trkpt lat="48.14844" lon="11.57395">
        <ele>486.521162</ele>
        <time>2021-08-11T12:20:50.000Z</time>
      </trkpt>
      <trkpt lat="48.14841" lon="11.574">
        <ele>486.527752</ele>
        <time>2021-08-11T12:20:54.000Z</time>
      </trkpt>
      <trkpt lat="48.14839" lon="11.57411">
        <ele>486.539219</ele>
        <time>2021-08-11T12:20:58.000Z</time>
      </trkpt>
      <trkpt lat="48.14839" lon="11.57411">
        <ele>486.53991</ele>
        <time>2021-08-11T12:20:59.000Z</time>
      </trkpt>
      <trkpt lat="48.14849" lon="11.57391">
        <ele>486.565276</ele>
        <time>2021-08-11T12:52:04.000Z</time>
      </trkpt>
      <trkpt lat="48.14843" lon="11.5739">
        <ele>486.574204</ele>
        <time>2021-08-11T12:52:06.000Z</time>
      </trkpt>
      <trkpt lat="48.14844" lon="11.57389">
        <ele>486.576452</ele>
        <time>2021-08-11T12:52:07.000Z</time>
      </trkpt>
      <trkpt lat="48.14843" lon="11.57387">
        <ele>486.578798</ele>
        <time>2021-08-11T12:52:11.000Z</time>
      </trkpt>
      <trkpt lat="48.14842" lon="11.57391">
        <ele>486.583618</ele>
        <time>2021-08-11T12:52:17.000Z</time>
      </trkpt>
      <trkpt lat="48.14841" lon="11.57391">
        <ele>486.584739</ele>
        <time>2021-08-11T12:52:19.000Z</time>
      </trkpt>
      <trkpt lat="48.14842" lon="11.57392">
        <ele>486.58554</ele>
        <time>2021-08-11T12:52:21.000Z</time>
      </trkpt>
      <trkpt lat="48.14842" lon="11.57392">
        <ele>486.58554</ele>
        <time>2021-08-11T12:52:22.000Z</time>
      </trkpt>
      <trkpt lat="48.14841" lon="11.57389">
        <ele>486.588268</ele>
        <time>2021-08-11T12:52:28.000Z</time>
      </trkpt>
      <trkpt lat="48.14841" lon="11.5739">
        <ele>486.589538</ele>
        <time>2021-08-11T12:52:30.000Z</time>
      </trkpt>
      <trkpt lat="48.14841" lon="11.5739">
        <ele>486.589538</ele>
        <time>2021-08-11T12:52:33.000Z</time>
      </trkpt>
      <trkpt lat="48.14841" lon="11.5739">
        <ele>486.589538</ele>
        <time>2021-08-11T12:52:35.000Z</time>
      </trkpt>
      <trkpt lat="48.14841" lon="11.57391">
        <ele>486.589974</ele>
        <time>2021-08-11T12:52:44.000Z</time>
      </trkpt>
      <trkpt lat="48.14842" lon="11.57394">
        <ele>486.593749</ele>
        <time>2021-08-11T12:52:50.000Z</time>
      </trkpt>
      <trkpt lat="48.14844" lon="11.57399">
        <ele>486.59922</ele>
        <time>2021-08-11T12:52:57.000Z</time>
      </trkpt>
      <trkpt lat="48.14843" lon="11.57399">
        <ele>486.600461</ele>
        <time>2021-08-11T12:53:03.000Z</time>
      </trkpt>
      <trkpt lat="48.14843" lon="11.57399">
        <ele>486.600461</ele>
        <time>2021-08-11T12:53:07.000Z</time>
      </trkpt>
      <trkpt lat="48.14843" lon="11.57398">
        <ele>486.60118</ele>
        <time>2021-08-11T12:53:15.000Z</time>
      </trkpt>
      <trkpt lat="48.14842" lon="11.57396">
        <ele>486.603913</ele>
        <time>2021-08-11T12:53:33.000Z</time>
      </trkpt>
      <trkpt lat="48.14842" lon="11.57396">
        <ele>486.604238</ele>
        <time>2021-08-11T12:53:35.000Z</time>
      </trkpt>
      <trkpt lat="48.14839" lon="11.57394">
        <ele>486.608886</ele>
        <time>2021-08-11T12:53:44.000Z</time>
      </trkpt>
      <trkpt lat="48.14839" lon="11.57395">
        <ele>486.609256</ele>
        <time>2021-08-11T12:53:45.000Z</time>
      </trkpt>
      <trkpt lat="48.14839" lon="11.57393">
        <ele>486.611052</ele>
        <time>2021-08-11T12:53:48.000Z</time>
      </trkpt>
      <trkpt lat="48.14839" lon="11.57393">
        <ele>486.611052</ele>
        <time>2021-08-11T12:53:50.000Z</time>
      </trkpt>
      <trkpt lat="48.14839" lon="11.57393">
        <ele>486.611052</ele>
        <time>2021-08-11T12:53:51.000Z</time>
      </trkpt>
      <trkpt lat="48.14839" lon="11.57393">
        <ele>486.611052</ele>
        <time>2021-08-11T12:53:55.000Z</time>
      </trkpt>
      <trkpt lat="48.14838" lon="11.57393">
        <ele>486.613514</ele>
        <time>2021-08-11T12:54:07.000Z</time>
      </trkpt>
      <trkpt lat="48.14837" lon="11.57393">
        <ele>486.614596</ele>
        <time>2021-08-11T12:54:18.000Z</time>
      </trkpt>
      <trkpt lat="48.14837" lon="11.57393">
        <ele>486.614596</ele>
        <time>2021-08-11T12:54:19.000Z</time>
      </trkpt>
      <trkpt lat="48.14837" lon="11.57393">
        <ele>486.61475</ele>
        <time>2021-08-11T12:54:21.000Z</time>
      </trkpt>
      <trkpt lat="48.14837" lon="11.57393">
        <ele>486.61475</ele>
        <time>2021-08-11T12:54:25.000Z</time>
      </trkpt>
      <trkpt lat="48.14837" lon="11.57394">
        <ele>486.615485</ele>
        <time>2021-08-11T12:54:28.000Z</time>
      </trkpt>
      <trkpt lat="48.14837" lon="11.57395">
        <ele>486.617093</ele>
        <time>2021-08-11T12:54:32.000Z</time>
      </trkpt>
      <trkpt lat="48.14837" lon="11.57397">
        <ele>486.618799</ele>
        <time>2021-08-11T12:54:36.000Z</time>
      </trkpt>
      <trkpt lat="48.14837" lon="11.57397">
        <ele>486.618799</ele>
        <time>2021-08-11T12:54:39.000Z</time>
      </trkpt>
      <trkpt lat="48.14837" lon="11.57397">
        <ele>486.618799</ele>
        <time>2021-08-11T12:54:41.000Z</time>
      </trkpt>
      <trkpt lat="48.14837" lon="11.57397">
        <ele>486.618953</ele>
        <time>2021-08-11T12:54:44.000Z</time>
      </trkpt>
      <trkpt lat="48.14837" lon="11.57398">
        <ele>486.620185</ele>
        <time>2021-08-11T12:54:51.000Z</time>
      </trkpt>
      <trkpt lat="48.14837" lon="11.57401">
        <ele>486.622913</ele>
        <time>2021-08-11T12:54:57.000Z</time>
      </trkpt>
      <trkpt lat="48.14836" lon="11.574">
        <ele>486.62397</ele>
        <time>2021-08-11T12:55:01.000Z</time>
      </trkpt>
      <trkpt lat="48.14836" lon="11.574">
        <ele>486.624408</ele>
        <time>2021-08-11T12:55:08.000Z</time>
      </trkpt>
      <trkpt lat="48.14835" lon="11.57401">
        <ele>486.627025</ele>
        <time>2021-08-11T12:55:14.000Z</time>
      </trkpt>
      <trkpt lat="48.14834" lon="11.57397">
        <ele>486.630901</ele>
        <time>2021-08-11T12:55:20.000Z</time>
      </trkpt>
      <trkpt lat="48.14833" lon="11.57397">
        <ele>486.632523</ele>
        <time>2021-08-11T12:55:29.000Z</time>
      </trkpt>
      <trkpt lat="48.14833" lon="11.57397">
        <ele>486.632831</ele>
        <time>2021-08-11T12:55:37.000Z</time>
      </trkpt>
      <trkpt lat="48.14833" lon="11.57396">
        <ele>486.634067</ele>
        <time>2021-08-11T12:55:45.000Z</time>
      </trkpt>
      <trkpt lat="48.14833" lon="11.57397">
        <ele>486.634755</ele>
        <time>2021-08-11T12:55:51.000Z</time>
      </trkpt>
      <trkpt lat="48.14833" lon="11.57397">
        <ele>486.634755</ele>
        <time>2021-08-11T12:55:56.000Z</time>
      </trkpt>
      <trkpt lat="48.14833" lon="11.57397">
        <ele>486.635063</ele>
        <time>2021-08-11T12:56:01.000Z</time>
      </trkpt>
      <trkpt lat="48.14833" lon="11.57397">
        <ele>486.635063</ele>
        <time>2021-08-11T12:56:08.000Z</time>
      </trkpt>
      <trkpt lat="48.14833" lon="11.57397">
        <ele>486.635536</ele>
        <time>2021-08-11T12:56:14.000Z</time>
      </trkpt>
      <trkpt lat="48.14833" lon="11.57394">
        <ele>486.638245</ele>
        <time>2021-08-11T12:56:44.000Z</time>
      </trkpt>
      <trkpt lat="48.14833" lon="11.57393">
        <ele>486.639219</ele>
        <time>2021-08-11T12:56:51.000Z</time>
      </trkpt>
      <trkpt lat="48.14833" lon="11.57393">
        <ele>486.639219</ele>
        <time>2021-08-11T12:56:52.000Z</time>
      </trkpt>
      <trkpt lat="48.14833" lon="11.57394">
        <ele>486.639476</ele>
        <time>2021-08-11T12:56:53.000Z</time>
      </trkpt>
      <trkpt lat="48.14832" lon="11.57394">
        <ele>486.641457</ele>
        <time>2021-08-11T12:56:59.000Z</time>
      </trkpt>
      <trkpt lat="48.14831" lon="11.57395">
        <ele>486.642075</ele>
        <time>2021-08-11T12:57:01.000Z</time>
      </trkpt>
      <trkpt lat="48.14832" lon="11.57395">
        <ele>486.642511</ele>
        <time>2021-08-11T12:57:07.000Z</time>
      </trkpt>
      <trkpt lat="48.14832" lon="11.57395">
        <ele>486.642511</ele>
        <time>2021-08-11T12:57:10.000Z</time>
      </trkpt>
      <trkpt lat="48.14832" lon="11.57395">
        <ele>486.642511</ele>
        <time>2021-08-11T12:57:17.000Z</time>
      </trkpt>
      <trkpt lat="48.14831" lon="11.57395">
        <ele>486.643047</ele>
        <time>2021-08-11T12:57:22.000Z</time>
      </trkpt>
      <trkpt lat="48.14831" lon="11.57395">
        <ele>486.643047</ele>
        <time>2021-08-11T12:57:24.000Z</time>
      </trkpt>
      <trkpt lat="48.14831" lon="11.57396">
        <ele>486.643457</ele>
        <time>2021-08-11T12:57:27.000Z</time>
      </trkpt>
      <trkpt lat="48.14833" lon="11.57394">
        <ele>486.646783</ele>
        <time>2021-08-11T12:57:46.000Z</time>
      </trkpt>
      <trkpt lat="48.14831" lon="11.57388">
        <ele>486.653854</ele>
        <time>2021-08-11T12:57:49.000Z</time>
      </trkpt>
      <trkpt lat="48.14824" lon="11.57381">
        <ele>486.666234</ele>
        <time>2021-08-11T12:57:53.000Z</time>
      </trkpt>
      <trkpt lat="48.14823" lon="11.57381">
        <ele>486.667954</ele>
        <time>2021-08-11T12:57:54.000Z</time>
      </trkpt>
      <trkpt lat="48.14816" lon="11.57378">
        <ele>486.679718</ele>
        <time>2021-08-11T12:57:58.000Z</time>
      </trkpt>
      <trkpt lat="48.14801" lon="11.57374">
        <ele>486.702639</ele>
        <time>2021-08-11T12:58:03.000Z</time>
      </trkpt>
      <trkpt lat="48.1479" lon="11.57369">
        <ele>486.720389</ele>
        <time>2021-08-11T12:58:06.000Z</time>
      </trkpt>
      <trkpt lat="48.14784" lon="11.57365">
        <ele>486.730478</ele>
        <time>2021-08-11T12:58:09.000Z</time>
      </trkpt>
      <trkpt lat="48.14783" lon="11.57365">
        <ele>486.73237</ele>
        <time>2021-08-11T12:58:10.000Z</time>
      </trkpt>
      <trkpt lat="48.14782" lon="11.57369">
        <ele>486.736432</ele>
        <time>2021-08-11T12:58:13.000Z</time>
      </trkpt>
      <trkpt lat="48.14779" lon="11.5737">
        <ele>486.740486</ele>
        <time>2021-08-11T12:58:15.000Z</time>
      </trkpt>
      <trkpt lat="48.14769" lon="11.57364">
        <ele>486.756511</ele>
        <time>2021-08-11T12:58:18.000Z</time>
      </trkpt>
      <trkpt lat="48.14745" lon="11.57343">
        <ele>486.799927</ele>
        <time>2021-08-11T12:58:24.000Z</time>
      </trkpt>
      <trkpt lat="48.14741" lon="11.57341">
        <ele>486.806335</ele>
        <time>2021-08-11T12:58:27.000Z</time>
      </trkpt>
      <trkpt lat="48.14741" lon="11.57337">
        <ele>486.809536</ele>
        <time>2021-08-11T12:58:29.000Z</time>
      </trkpt>
      <trkpt lat="48.14742" lon="11.57334">
        <ele>486.813669</ele>
        <time>2021-08-11T12:58:33.000Z</time>
      </trkpt>
      <trkpt lat="48.14742" lon="11.57334">
        <ele>486.813922</ele>
        <time>2021-08-11T12:58:35.000Z</time>
      </trkpt>
      <trkpt lat="48.14741" lon="11.57331">
        <ele>486.817393</ele>
        <time>2021-08-11T12:58:45.000Z</time>
      </trkpt>
      <trkpt lat="48.14741" lon="11.57331">
        <ele>486.817393</ele>
        <time>2021-08-11T12:58:48.000Z</time>
      </trkpt>
      <trkpt lat="48.14741" lon="11.57331">
        <ele>486.817393</ele>
        <time>2021-08-11T12:58:53.000Z</time>
      </trkpt>
      <trkpt lat="48.14741" lon="11.57331">
        <ele>486.817393</ele>
        <time>2021-08-11T12:58:58.000Z</time>
      </trkpt>
      <trkpt lat="48.14741" lon="11.57331">
        <ele>486.817596</ele>
        <time>2021-08-11T12:59:03.000Z</time>
      </trkpt>
      <trkpt lat="48.14739" lon="11.57329">
        <ele>486.82173</ele>
        <time>2021-08-11T12:59:08.000Z</time>
      </trkpt>
      <trkpt lat="48.14733" lon="11.57332">
        <ele>486.83026</ele>
        <time>2021-08-11T12:59:11.000Z</time>
      </trkpt>
      <trkpt lat="48.14722" lon="11.57332">
        <ele>486.847738</ele>
        <time>2021-08-11T12:59:16.000Z</time>
      </trkpt>
      <trkpt lat="48.14709" lon="11.5733">
        <ele>486.867353</ele>
        <time>2021-08-11T12:59:22.000Z</time>
      </trkpt>
      <trkpt lat="48.14707" lon="11.57329">
        <ele>486.870901</ele>
        <time>2021-08-11T12:59:23.000Z</time>
      </trkpt>
      <trkpt lat="48.14689" lon="11.57328">
        <ele>486.897197</ele>
        <time>2021-08-11T12:59:29.000Z</time>
      </trkpt>
      <trkpt lat="48.14675" lon="11.57327">
        <ele>486.918525</ele>
        <time>2021-08-11T12:59:33.000Z</time>
      </trkpt>
      <trkpt lat="48.14671" lon="11.57324">
        <ele>486.92515</ele>
        <time>2021-08-11T12:59:34.000Z</time>
      </trkpt>
      <trkpt lat="48.14651" lon="11.5731">
        <ele>486.958608</ele>
        <time>2021-08-11T12:59:42.000Z</time>
      </trkpt>
      <trkpt lat="48.14641" lon="11.57308">
        <ele>486.974014</ele>
        <time>2021-08-11T12:59:47.000Z</time>
      </trkpt>
      <trkpt lat="48.14628" lon="11.57315">
        <ele>486.995544</ele>
        <time>2021-08-11T12:59:53.000Z</time>
      </trkpt>
      <trkpt lat="48.14624" lon="11.57317">
        <ele>487.00217</ele>
        <time>2021-08-11T12:59:55.000Z</time>
      </trkpt>
      <trkpt lat="48.14619" lon="11.57318">
        <ele>486.985748</ele>
        <time>2021-08-11T12:59:58.000Z</time>
      </trkpt>
      <trkpt lat="48.14617" lon="11.57318">
        <ele>486.974822</ele>
        <time>2021-08-11T12:59:59.000Z</time>
      </trkpt>
      <trkpt lat="48.14607" lon="11.57316">
        <ele>486.932242</ele>
        <time>2021-08-11T13:00:02.000Z</time>
      </trkpt>
      <trkpt lat="48.14604" lon="11.57318">
        <ele>486.915544</ele>
        <time>2021-08-11T13:00:03.000Z</time>
      </trkpt>
      <trkpt lat="48.146" lon="11.5732">
        <ele>486.899172</ele>
        <time>2021-08-11T13:00:04.000Z</time>
      </trkpt>
      <trkpt lat="48.14595" lon="11.57327">
        <ele>486.868722</ele>
        <time>2021-08-11T13:00:06.000Z</time>
      </trkpt>
      <trkpt lat="48.14593" lon="11.57331">
        <ele>486.853429</ele>
        <time>2021-08-11T13:00:07.000Z</time>
      </trkpt>
      <trkpt lat="48.14589" lon="11.5734">
        <ele>486.823672</ele>
        <time>2021-08-11T13:00:09.000Z</time>
      </trkpt>
      <trkpt lat="48.1458" lon="11.57357">
        <ele>486.759882</ele>
        <time>2021-08-11T13:00:13.000Z</time>
      </trkpt>
      <trkpt lat="48.14565" lon="11.57391">
        <ele>486.642598</ele>
        <time>2021-08-11T13:00:20.000Z</time>
      </trkpt>
      <trkpt lat="48.14555" lon="11.57426">
        <ele>486.532194</ele>
        <time>2021-08-11T13:00:27.000Z</time>
      </trkpt>
      <trkpt lat="48.14554" lon="11.57429">
        <ele>486.52032</ele>
        <time>2021-08-11T13:00:28.000Z</time>
      </trkpt>
      <trkpt lat="48.14551" lon="11.57441">
        <ele>486.484199</ele>
        <time>2021-08-11T13:00:33.000Z</time>
      </trkpt>
      <trkpt lat="48.14553" lon="11.57439">
        <ele>486.473416</ele>
        <time>2021-08-11T13:00:40.000Z</time>
      </trkpt>
      <trkpt lat="48.14558" lon="11.57434">
        <ele>486.447591</ele>
        <time>2021-08-11T13:00:48.000Z</time>
      </trkpt>
      <trkpt lat="48.1456" lon="11.57435">
        <ele>486.436991</ele>
        <time>2021-08-11T13:00:50.000Z</time>
      </trkpt>
      <trkpt lat="48.14561" lon="11.57435">
        <ele>486.432164</ele>
        <time>2021-08-11T13:00:53.000Z</time>
      </trkpt>
      <trkpt lat="48.14561" lon="11.57435">
        <ele>486.432164</ele>
        <time>2021-08-11T13:00:56.000Z</time>
      </trkpt>
      <trkpt lat="48.14561" lon="11.57435">
        <ele>486.432164</ele>
        <time>2021-08-11T13:00:57.000Z</time>
      </trkpt>
      <trkpt lat="48.1456" lon="11.57438">
        <ele>486.42313</ele>
        <time>2021-08-11T13:01:09.000Z</time>
      </trkpt>
      <trkpt lat="48.14559" lon="11.57442">
        <ele>486.40862</ele>
        <time>2021-08-11T13:01:10.000Z</time>
      </trkpt>
      <trkpt lat="48.1455" lon="11.57457">
        <ele>486.351752</ele>
        <time>2021-08-11T13:01:14.000Z</time>
      </trkpt>
      <trkpt lat="48.14546" lon="11.57469">
        <ele>486.310466</ele>
        <time>2021-08-11T13:01:16.000Z</time>
      </trkpt>
      <trkpt lat="48.14541" lon="11.57492">
        <ele>486.23974</ele>
        <time>2021-08-11T13:01:20.000Z</time>
      </trkpt>
      <trkpt lat="48.14538" lon="11.57517">
        <ele>486.277985</ele>
        <time>2021-08-11T13:01:24.000Z</time>
      </trkpt>
      <trkpt lat="48.14536" lon="11.57548">
        <ele>486.374431</ele>
        <time>2021-08-11T13:01:28.000Z</time>
      </trkpt>
      <trkpt lat="48.14537" lon="11.57555">
        <ele>486.39982</ele>
        <time>2021-08-11T13:01:29.000Z</time>
      </trkpt>
      <trkpt lat="48.14539" lon="11.5757">
        <ele>486.446898</ele>
        <time>2021-08-11T13:01:31.000Z</time>
      </trkpt>
      <trkpt lat="48.14541" lon="11.57587">
        <ele>486.50216</ele>
        <time>2021-08-11T13:01:34.000Z</time>
      </trkpt>
      <trkpt lat="48.14542" lon="11.5761">
        <ele>486.576651</ele>
        <time>2021-08-11T13:01:38.000Z</time>
      </trkpt>
      <trkpt lat="48.14543" lon="11.57616">
        <ele>486.596684</ele>
        <time>2021-08-11T13:01:39.000Z</time>
      </trkpt>
      <trkpt lat="48.14544" lon="11.57623">
        <ele>486.618608</ele>
        <time>2021-08-11T13:01:40.000Z</time>
      </trkpt>
      <trkpt lat="48.14546" lon="11.57643">
        <ele>486.681408</ele>
        <time>2021-08-11T13:01:43.000Z</time>
      </trkpt>
      <trkpt lat="48.14546" lon="11.57649">
        <ele>486.700866</ele>
        <time>2021-08-11T13:01:44.000Z</time>
      </trkpt>
      <trkpt lat="48.14545" lon="11.57663">
        <ele>486.746145</ele>
        <time>2021-08-11T13:01:46.000Z</time>
      </trkpt>
      <trkpt lat="48.14545" lon="11.57675">
        <ele>486.78342</ele>
        <time>2021-08-11T13:01:48.000Z</time>
      </trkpt>
      <trkpt lat="48.14545" lon="11.57697">
        <ele>486.854467</ele>
        <time>2021-08-11T13:01:52.000Z</time>
      </trkpt>
      <trkpt lat="48.14543" lon="11.5772">
        <ele>486.929407</ele>
        <time>2021-08-11T13:01:56.000Z</time>
      </trkpt>
      <trkpt lat="48.14545" lon="11.57747">
        <ele>487.015955</ele>
        <time>2021-08-11T13:02:01.000Z</time>
      </trkpt>
      <trkpt lat="48.14547" lon="11.57757">
        <ele>487.048031</ele>
        <time>2021-08-11T13:02:05.000Z</time>
      </trkpt>
      <trkpt lat="48.14545" lon="11.57761">
        <ele>487.063934</ele>
        <time>2021-08-11T13:02:06.000Z</time>
      </trkpt>
      <trkpt lat="48.14541" lon="11.57775">
        <ele>487.053525</ele>
        <time>2021-08-11T13:02:09.000Z</time>
      </trkpt>
      <trkpt lat="48.14533" lon="11.57811">
        <ele>486.972044</ele>
        <time>2021-08-11T13:02:15.000Z</time>
      </trkpt>
      <trkpt lat="48.14531" lon="11.57835">
        <ele>486.918594</ele>
        <time>2021-08-11T13:02:19.000Z</time>
      </trkpt>
      <trkpt lat="48.14529" lon="11.57846">
        <ele>486.89393</ele>
        <time>2021-08-11T13:02:22.000Z</time>
      </trkpt>
      <trkpt lat="48.14528" lon="11.57847">
        <ele>486.88891</ele>
        <time>2021-08-11T13:02:24.000Z</time>
      </trkpt>
      <trkpt lat="48.14528" lon="11.57848">
        <ele>486.887433</ele>
        <time>2021-08-11T13:02:27.000Z</time>
      </trkpt>
      <trkpt lat="48.14527" lon="11.57853">
        <ele>486.874941</ele>
        <time>2021-08-11T13:02:31.000Z</time>
      </trkpt>
      <trkpt lat="48.14526" lon="11.57861">
        <ele>486.857485</ele>
        <time>2021-08-11T13:02:33.000Z</time>
      </trkpt>
      <trkpt lat="48.14522" lon="11.57874">
        <ele>486.82661</ele>
        <time>2021-08-11T13:02:36.000Z</time>
      </trkpt>
      <trkpt lat="48.14518" lon="11.57895">
        <ele>486.777929</ele>
        <time>2021-08-11T13:02:40.000Z</time>
      </trkpt>
      <trkpt lat="48.14511" lon="11.57924">
        <ele>486.710445</ele>
        <time>2021-08-11T13:02:45.000Z</time>
      </trkpt>
      <trkpt lat="48.14505" lon="11.57952">
        <ele>486.644632</ele>
        <time>2021-08-11T13:02:50.000Z</time>
      </trkpt>
      <trkpt lat="48.14504" lon="11.57979">
        <ele>486.58474</ele>
        <time>2021-08-11T13:02:53.000Z</time>
      </trkpt>
      <trkpt lat="48.145" lon="11.58003">
        <ele>486.531635</ele>
        <time>2021-08-11T13:02:56.000Z</time>
      </trkpt>
      <trkpt lat="48.14495" lon="11.58025">
        <ele>486.476929</ele>
        <time>2021-08-11T13:02:59.000Z</time>
      </trkpt>
      <trkpt lat="48.14486" lon="11.58065">
        <ele>486.26695</ele>
        <time>2021-08-11T13:03:04.000Z</time>
      </trkpt>
      <trkpt lat="48.14484" lon="11.58073">
        <ele>486.222465</ele>
        <time>2021-08-11T13:03:05.000Z</time>
      </trkpt>
      <trkpt lat="48.14482" lon="11.5809">
        <ele>486.138047</ele>
        <time>2021-08-11T13:03:07.000Z</time>
      </trkpt>
      <trkpt lat="48.14481" lon="11.58099">
        <ele>486.093096</ele>
        <time>2021-08-11T13:03:08.000Z</time>
      </trkpt>
      <trkpt lat="48.1448" lon="11.58108">
        <ele>486.047927</ele>
        <time>2021-08-11T13:03:09.000Z</time>
      </trkpt>
      <trkpt lat="48.14477" lon="11.58124">
        <ele>485.965172</ele>
        <time>2021-08-11T13:03:11.000Z</time>
      </trkpt>
      <trkpt lat="48.14474" lon="11.58139">
        <ele>485.886225</ele>
        <time>2021-08-11T13:03:13.000Z</time>
      </trkpt>
      <trkpt lat="48.14471" lon="11.58155">
        <ele>485.805771</ele>
        <time>2021-08-11T13:03:15.000Z</time>
      </trkpt>
      <trkpt lat="48.14467" lon="11.58173">
        <ele>485.713904</ele>
        <time>2021-08-11T13:03:17.000Z</time>
      </trkpt>
      <trkpt lat="48.14463" lon="11.58195">
        <ele>485.600413</ele>
        <time>2021-08-11T13:03:20.000Z</time>
      </trkpt>
      <trkpt lat="48.14456" lon="11.58226">
        <ele>485.43769</ele>
        <time>2021-08-11T13:03:24.000Z</time>
      </trkpt>
      <trkpt lat="48.14453" lon="11.58243">
        <ele>485.348814</ele>
        <time>2021-08-11T13:03:26.000Z</time>
      </trkpt>
      <trkpt lat="48.1445" lon="11.58261">
        <ele>485.259177</ele>
        <time>2021-08-11T13:03:28.000Z</time>
      </trkpt>
      <trkpt lat="48.14448" lon="11.58279">
        <ele>485.166332</ele>
        <time>2021-08-11T13:03:30.000Z</time>
      </trkpt>
      <trkpt lat="48.14447" lon="11.58296">
        <ele>485.097467</ele>
        <time>2021-08-11T13:03:32.000Z</time>
      </trkpt>
      <trkpt lat="48.14443" lon="11.58319">
        <ele>485.004312</ele>
        <time>2021-08-11T13:03:35.000Z</time>
      </trkpt>
      <trkpt lat="48.1444" lon="11.58328">
        <ele>484.969641</ele>
        <time>2021-08-11T13:03:36.000Z</time>
      </trkpt>
      <trkpt lat="48.14435" lon="11.58347">
        <ele>484.888387</ele>
        <time>2021-08-11T13:03:39.000Z</time>
      </trkpt>
      <trkpt lat="48.14433" lon="11.58352">
        <ele>484.86362</ele>
        <time>2021-08-11T13:03:40.000Z</time>
      </trkpt>
      <trkpt lat="48.14426" lon="11.58363">
        <ele>484.809517</ele>
        <time>2021-08-11T13:03:43.000Z</time>
      </trkpt>
      <trkpt lat="48.14426" lon="11.58363">
        <ele>484.807194</ele>
        <time>2021-08-11T13:03:47.000Z</time>
      </trkpt>
      <trkpt lat="48.14426" lon="11.58363">
        <ele>484.807194</ele>
        <time>2021-08-11T13:03:53.000Z</time>
      </trkpt>
      <trkpt lat="48.14426" lon="11.58363">
        <ele>484.807194</ele>
        <time>2021-08-11T13:03:54.000Z</time>
      </trkpt>
      <trkpt lat="48.14426" lon="11.58363">
        <ele>484.807194</ele>
        <time>2021-08-11T13:03:57.000Z</time>
      </trkpt>
      <trkpt lat="48.14426" lon="11.58363">
        <ele>484.807194</ele>
        <time>2021-08-11T13:03:58.000Z</time>
      </trkpt>
      <trkpt lat="48.14426" lon="11.58363">
        <ele>484.807194</ele>
        <time>2021-08-11T13:04:16.000Z</time>
      </trkpt>
      <trkpt lat="48.14426" lon="11.58361">
        <ele>484.7985</ele>
        <time>2021-08-11T13:04:28.000Z</time>
      </trkpt>
      <trkpt lat="48.14425" lon="11.58354">
        <ele>484.770581</ele>
        <time>2021-08-11T13:04:30.000Z</time>
      </trkpt>
      <trkpt lat="48.14423" lon="11.58351">
        <ele>484.754743</ele>
        <time>2021-08-11T13:04:31.000Z</time>
      </trkpt>
      <trkpt lat="48.14413" lon="11.58346">
        <ele>484.695767</ele>
        <time>2021-08-11T13:04:34.000Z</time>
      </trkpt>
      <trkpt lat="48.14388" lon="11.58342">
        <ele>484.549951</ele>
        <time>2021-08-11T13:04:41.000Z</time>
      </trkpt>
      <trkpt lat="48.14385" lon="11.58344">
        <ele>484.531736</ele>
        <time>2021-08-11T13:04:42.000Z</time>
      </trkpt>
      <trkpt lat="48.14381" lon="11.58352">
        <ele>484.493154</ele>
        <time>2021-08-11T13:04:44.000Z</time>
      </trkpt>
      <trkpt lat="48.14377" lon="11.58366">
        <ele>484.434488</ele>
        <time>2021-08-11T13:04:47.000Z</time>
      </trkpt>
      <trkpt lat="48.14375" lon="11.58382">
        <ele>484.36969</ele>
        <time>2021-08-11T13:04:50.000Z</time>
      </trkpt>
      <trkpt lat="48.1437" lon="11.58408">
        <ele>484.263892</ele>
        <time>2021-08-11T13:04:56.000Z</time>
      </trkpt>
      <trkpt lat="48.1437" lon="11.58409">
        <ele>484.260359</ele>
        <time>2021-08-11T13:04:59.000Z</time>
      </trkpt>
      <trkpt lat="48.1437" lon="11.58409">
        <ele>484.260359</ele>
        <time>2021-08-11T13:05:00.000Z</time>
      </trkpt>
      <trkpt lat="48.1437" lon="11.58409">
        <ele>484.260359</ele>
        <time>2021-08-11T13:05:07.000Z</time>
      </trkpt>
      <trkpt lat="48.1437" lon="11.58409">
        <ele>484.260359</ele>
        <time>2021-08-11T13:05:11.000Z</time>
      </trkpt>
      <trkpt lat="48.1437" lon="11.58409">
        <ele>484.260359</ele>
        <time>2021-08-11T13:05:24.000Z</time>
      </trkpt>
      <trkpt lat="48.1437" lon="11.58409">
        <ele>484.260359</ele>
        <time>2021-08-11T13:05:31.000Z</time>
      </trkpt>
      <trkpt lat="48.1437" lon="11.58409">
        <ele>484.260359</ele>
        <time>2021-08-11T13:05:34.000Z</time>
      </trkpt>
      <trkpt lat="48.1437" lon="11.58409">
        <ele>484.260359</ele>
        <time>2021-08-11T13:05:38.000Z</time>
      </trkpt>
      <trkpt lat="48.1437" lon="11.58409">
        <ele>484.260359</ele>
        <time>2021-08-11T13:05:45.000Z</time>
      </trkpt>
      <trkpt lat="48.14369" lon="11.58412">
        <ele>484.248233</ele>
        <time>2021-08-11T13:05:58.000Z</time>
      </trkpt>
      <trkpt lat="48.14368" lon="11.58419">
        <ele>484.222699</ele>
        <time>2021-08-11T13:06:00.000Z</time>
      </trkpt>
      <trkpt lat="48.14363" lon="11.58444">
        <ele>484.118713</ele>
        <time>2021-08-11T13:06:06.000Z</time>
      </trkpt>
      <trkpt lat="48.14359" lon="11.58471">
        <ele>484.044712</ele>
        <time>2021-08-11T13:06:11.000Z</time>
      </trkpt>
      <trkpt lat="48.14351" lon="11.58509">
        <ele>483.940958</ele>
        <time>2021-08-11T13:06:17.000Z</time>
      </trkpt>
      <trkpt lat="48.14345" lon="11.5854">
        <ele>483.857421</ele>
        <time>2021-08-11T13:06:22.000Z</time>
      </trkpt>
      <trkpt lat="48.14343" lon="11.58554">
        <ele>483.821409</ele>
        <time>2021-08-11T13:06:24.000Z</time>
      </trkpt>
      <trkpt lat="48.1434" lon="11.58573">
        <ele>483.769574</ele>
        <time>2021-08-11T13:06:27.000Z</time>
      </trkpt>
      <trkpt lat="48.14341" lon="11.58584">
        <ele>483.7396</ele>
        <time>2021-08-11T13:06:29.000Z</time>
      </trkpt>
      <trkpt lat="48.14343" lon="11.58599">
        <ele>483.700302</ele>
        <time>2021-08-11T13:06:32.000Z</time>
      </trkpt>
      <trkpt lat="48.14339" lon="11.58621">
        <ele>483.640437</ele>
        <time>2021-08-11T13:06:36.000Z</time>
      </trkpt>
      <trkpt lat="48.14334" lon="11.58645">
        <ele>483.576983</ele>
        <time>2021-08-11T13:06:40.000Z</time>
      </trkpt>
      <trkpt lat="48.14331" lon="11.58658">
        <ele>483.540596</ele>
        <time>2021-08-11T13:06:42.000Z</time>
      </trkpt>
      <trkpt lat="48.14329" lon="11.58671">
        <ele>483.505138</ele>
        <time>2021-08-11T13:06:44.000Z</time>
      </trkpt>
      <trkpt lat="48.14323" lon="11.58705">
        <ele>483.414221</ele>
        <time>2021-08-11T13:06:49.000Z</time>
      </trkpt>
      <trkpt lat="48.14322" lon="11.58712">
        <ele>483.404074</ele>
        <time>2021-08-11T13:06:50.000Z</time>
      </trkpt>
      <trkpt lat="48.14312" lon="11.58763">
        <ele>483.361938</ele>
        <time>2021-08-11T13:06:58.000Z</time>
      </trkpt>
      <trkpt lat="48.14311" lon="11.58767">
        <ele>483.358219</ele>
        <time>2021-08-11T13:06:59.000Z</time>
      </trkpt>
      <trkpt lat="48.14302" lon="11.58807">
        <ele>483.324155</ele>
        <time>2021-08-11T13:07:07.000Z</time>
      </trkpt>
      <trkpt lat="48.143" lon="11.58825">
        <ele>483.310251</ele>
        <time>2021-08-11T13:07:11.000Z</time>
      </trkpt>
      <trkpt lat="48.14303" lon="11.58827">
        <ele>483.306183</ele>
        <time>2021-08-11T13:07:12.000Z</time>
      </trkpt>
      <trkpt lat="48.14314" lon="11.58831">
        <ele>483.293074</ele>
        <time>2021-08-11T13:07:16.000Z</time>
      </trkpt>
      <trkpt lat="48.14316" lon="11.58829">
        <ele>483.290715</ele>
        <time>2021-08-11T13:07:17.000Z</time>
      </trkpt>
      <trkpt lat="48.14323" lon="11.58815">
        <ele>483.275815</ele>
        <time>2021-08-11T13:07:21.000Z</time>
      </trkpt>
      <trkpt lat="48.1433" lon="11.58784">
        <ele>483.249591</ele>
        <time>2021-08-11T13:07:27.000Z</time>
      </trkpt>
      <trkpt lat="48.14334" lon="11.58773">
        <ele>483.239794</ele>
        <time>2021-08-11T13:07:31.000Z</time>
      </trkpt>
      <trkpt lat="48.14335" lon="11.58767">
        <ele>483.235062</ele>
        <time>2021-08-11T13:07:36.000Z</time>
      </trkpt>
      <trkpt lat="48.14335" lon="11.58767">
        <ele>483.235062</ele>
        <time>2021-08-11T13:07:45.000Z</time>
      </trkpt>
      <trkpt lat="48.14335" lon="11.58767">
        <ele>483.235062</ele>
        <time>2021-08-11T13:08:07.000Z</time>
      </trkpt>
      <trkpt lat="48.14335" lon="11.58767">
        <ele>483.235062</ele>
        <time>2021-08-11T13:08:11.000Z</time>
      </trkpt>
      <trkpt lat="48.14335" lon="11.58767">
        <ele>483.235062</ele>
        <time>2021-08-11T13:08:15.000Z</time>
      </trkpt>
      <trkpt lat="48.14335" lon="11.58767">
        <ele>483.235062</ele>
        <time>2021-08-11T13:08:25.000Z</time>
      </trkpt>
      <trkpt lat="48.14334" lon="11.58767">
        <ele>483.234863</ele>
        <time>2021-08-11T13:08:30.000Z</time>
      </trkpt>
      <trkpt lat="48.14333" lon="11.5877">
        <ele>483.231971</ele>
        <time>2021-08-11T13:08:31.000Z</time>
      </trkpt>
      <trkpt lat="48.14332" lon="11.58774">
        <ele>483.22886</ele>
        <time>2021-08-11T13:08:32.000Z</time>
      </trkpt>
      <trkpt lat="48.14329" lon="11.58787">
        <ele>483.21739</ele>
        <time>2021-08-11T13:08:35.000Z</time>
      </trkpt>
      <trkpt lat="48.14326" lon="11.588">
        <ele>483.20668</ele>
        <time>2021-08-11T13:08:37.000Z</time>
      </trkpt>
      <trkpt lat="48.14324" lon="11.58811">
        <ele>483.197935</ele>
        <time>2021-08-11T13:08:39.000Z</time>
      </trkpt>
      <trkpt lat="48.14319" lon="11.5883">
        <ele>483.19744</ele>
        <time>2021-08-11T13:08:44.000Z</time>
      </trkpt>
      <trkpt lat="48.14318" lon="11.58838">
        <ele>483.200191</ele>
        <time>2021-08-11T13:08:47.000Z</time>
      </trkpt>
      <trkpt lat="48.14318" lon="11.58839">
        <ele>483.200596</ele>
        <time>2021-08-11T13:08:48.000Z</time>
      </trkpt>
      <trkpt lat="48.14318" lon="11.5884">
        <ele>483.200822</ele>
        <time>2021-08-11T13:08:50.000Z</time>
      </trkpt>
      <trkpt lat="48.14318" lon="11.5884">
        <ele>483.200822</ele>
        <time>2021-08-11T13:08:57.000Z</time>
      </trkpt>
      <trkpt lat="48.14317" lon="11.58843">
        <ele>483.202104</ele>
        <time>2021-08-11T13:09:04.000Z</time>
      </trkpt>
      <trkpt lat="48.14315" lon="11.58847">
        <ele>483.203422</ele>
        <time>2021-08-11T13:09:05.000Z</time>
      </trkpt>
      <trkpt lat="48.1431" lon="11.58873">
        <ele>483.212774</ele>
        <time>2021-08-11T13:09:10.000Z</time>
      </trkpt>
      <trkpt lat="48.14304" lon="11.58897">
        <ele>483.221441</ele>
        <time>2021-08-11T13:09:15.000Z</time>
      </trkpt>
      <trkpt lat="48.14297" lon="11.5894">
        <ele>483.236228</ele>
        <time>2021-08-11T13:09:24.000Z</time>
      </trkpt>
      <trkpt lat="48.14291" lon="11.58967">
        <ele>483.245573</ele>
        <time>2021-08-11T13:09:30.000Z</time>
      </trkpt>
      <trkpt lat="48.14285" lon="11.58985">
        <ele>483.252279</ele>
        <time>2021-08-11T13:09:34.000Z</time>
      </trkpt>
      <trkpt lat="48.14284" lon="11.5899">
        <ele>483.254079</ele>
        <time>2021-08-11T13:09:35.000Z</time>
      </trkpt>
      <trkpt lat="48.14281" lon="11.59006">
        <ele>483.259687</ele>
        <time>2021-08-11T13:09:38.000Z</time>
      </trkpt>
      <trkpt lat="48.14281" lon="11.59031">
        <ele>483.26817</ele>
        <time>2021-08-11T13:09:42.000Z</time>
      </trkpt>
      <trkpt lat="48.14276" lon="11.59065">
        <ele>483.279574</ele>
        <time>2021-08-11T13:09:48.000Z</time>
      </trkpt>
      <trkpt lat="48.14271" lon="11.59107">
        <ele>483.386033</ele>
        <time>2021-08-11T13:09:55.000Z</time>
      </trkpt>
      <trkpt lat="48.14268" lon="11.59118">
        <ele>483.425871</ele>
        <time>2021-08-11T13:09:57.000Z</time>
      </trkpt>
      <trkpt lat="48.14261" lon="11.59178">
        <ele>483.617909</ele>
        <time>2021-08-11T13:10:07.000Z</time>
      </trkpt>
      <trkpt lat="48.14248" lon="11.59211">
        <ele>483.738187</ele>
        <time>2021-08-11T13:10:14.000Z</time>
      </trkpt>
      <trkpt lat="48.14238" lon="11.59237">
        <ele>483.835274</ele>
        <time>2021-08-11T13:10:19.000Z</time>
      </trkpt>
      <trkpt lat="48.14236" lon="11.59248">
        <ele>483.871111</ele>
        <time>2021-08-11T13:10:21.000Z</time>
      </trkpt>
      <trkpt lat="48.14235" lon="11.59252">
        <ele>483.883912</ele>
        <time>2021-08-11T13:10:22.000Z</time>
      </trkpt>
      <trkpt lat="48.1423" lon="11.59279">
        <ele>483.973738</ele>
        <time>2021-08-11T13:10:27.000Z</time>
      </trkpt>
      <trkpt lat="48.14224" lon="11.59303">
        <ele>484.055054</ele>
        <time>2021-08-11T13:10:31.000Z</time>
      </trkpt>
      <trkpt lat="48.1422" lon="11.59323">
        <ele>484.119659</ele>
        <time>2021-08-11T13:10:34.000Z</time>
      </trkpt>
      <trkpt lat="48.1421" lon="11.59353">
        <ele>484.107581</ele>
        <time>2021-08-11T13:10:40.000Z</time>
      </trkpt>
      <trkpt lat="48.14207" lon="11.59371">
        <ele>484.085918</ele>
        <time>2021-08-11T13:10:44.000Z</time>
      </trkpt>
      <trkpt lat="48.14204" lon="11.59381">
        <ele>484.073249</ele>
        <time>2021-08-11T13:10:46.000Z</time>
      </trkpt>
      <trkpt lat="48.14203" lon="11.59388">
        <ele>484.065212</ele>
        <time>2021-08-11T13:10:47.000Z</time>
      </trkpt>
      <trkpt lat="48.14202" lon="11.59392">
        <ele>484.060085</ele>
        <time>2021-08-11T13:10:48.000Z</time>
      </trkpt>
      <trkpt lat="48.142" lon="11.59407">
        <ele>484.042367</ele>
        <time>2021-08-11T13:10:51.000Z</time>
      </trkpt>
      <trkpt lat="48.14198" lon="11.59417">
        <ele>484.030216</ele>
        <time>2021-08-11T13:10:54.000Z</time>
      </trkpt>
      <trkpt lat="48.14198" lon="11.59427">
        <ele>484.019419</ele>
        <time>2021-08-11T13:10:58.000Z</time>
      </trkpt>
      <trkpt lat="48.14197" lon="11.59428">
        <ele>484.01747</ele>
        <time>2021-08-11T13:10:59.000Z</time>
      </trkpt>
      <trkpt lat="48.14197" lon="11.59428">
        <ele>484.016941</ele>
        <time>2021-08-11T13:11:05.000Z</time>
      </trkpt>
      <trkpt lat="48.14196" lon="11.59428">
        <ele>484.014488</ele>
        <time>2021-08-11T13:11:06.000Z</time>
      </trkpt>
      <trkpt lat="48.14196" lon="11.59427">
        <ele>484.014103</ele>
        <time>2021-08-11T13:11:23.000Z</time>
      </trkpt>
      <trkpt lat="48.14196" lon="11.59427">
        <ele>484.014103</ele>
        <time>2021-08-11T13:11:29.000Z</time>
      </trkpt>
      <trkpt lat="48.14196" lon="11.59427">
        <ele>484.014103</ele>
        <time>2021-08-11T13:11:36.000Z</time>
      </trkpt>
      <trkpt lat="48.14196" lon="11.59427">
        <ele>484.014103</ele>
        <time>2021-08-11T13:11:44.000Z</time>
      </trkpt>
      <trkpt lat="48.14196" lon="11.59427">
        <ele>484.014103</ele>
        <time>2021-08-11T13:11:47.000Z</time>
      </trkpt>
      <trkpt lat="48.14196" lon="11.59427">
        <ele>484.014103</ele>
        <time>2021-08-11T13:11:51.000Z</time>
      </trkpt>
      <trkpt lat="48.14195" lon="11.59433">
        <ele>484.007157</ele>
        <time>2021-08-11T13:11:54.000Z</time>
      </trkpt>
      <trkpt lat="48.14195" lon="11.59437">
        <ele>484.002799</ele>
        <time>2021-08-11T13:11:55.000Z</time>
      </trkpt>
      <trkpt lat="48.1419" lon="11.59465">
        <ele>483.968966</ele>
        <time>2021-08-11T13:12:01.000Z</time>
      </trkpt>
      <trkpt lat="48.14187" lon="11.59473">
        <ele>483.958644</ele>
        <time>2021-08-11T13:12:03.000Z</time>
      </trkpt>
      <trkpt lat="48.14185" lon="11.59486">
        <ele>483.943377</ele>
        <time>2021-08-11T13:12:06.000Z</time>
      </trkpt>
      <trkpt lat="48.14184" lon="11.59491">
        <ele>483.937428</ele>
        <time>2021-08-11T13:12:07.000Z</time>
      </trkpt>
      <trkpt lat="48.14182" lon="11.595">
        <ele>483.926018</ele>
        <time>2021-08-11T13:12:09.000Z</time>
      </trkpt>
      <trkpt lat="48.14179" lon="11.5952">
        <ele>483.90236</ele>
        <time>2021-08-11T13:12:13.000Z</time>
      </trkpt>
      <trkpt lat="48.14178" lon="11.59525">
        <ele>483.897177</ele>
        <time>2021-08-11T13:12:14.000Z</time>
      </trkpt>
      <trkpt lat="48.14173" lon="11.59548">
        <ele>483.869282</ele>
        <time>2021-08-11T13:12:19.000Z</time>
      </trkpt>
      <trkpt lat="48.1417" lon="11.59571">
        <ele>483.841861</ele>
        <time>2021-08-11T13:12:24.000Z</time>
      </trkpt>
      <trkpt lat="48.14174" lon="11.59586">
        <ele>483.734366</ele>
        <time>2021-08-11T13:12:29.000Z</time>
      </trkpt>
      <trkpt lat="48.14174" lon="11.59588">
        <ele>483.71233</ele>
        <time>2021-08-11T13:12:33.000Z</time>
      </trkpt>
      <trkpt lat="48.14174" lon="11.59588">
        <ele>483.71233</ele>
        <time>2021-08-11T13:12:40.000Z</time>
      </trkpt>
      <trkpt lat="48.14174" lon="11.59588">
        <ele>483.71233</ele>
        <time>2021-08-11T13:12:42.000Z</time>
      </trkpt>
      <trkpt lat="48.14174" lon="11.59588">
        <ele>483.71233</ele>
        <time>2021-08-11T13:12:43.000Z</time>
      </trkpt>
      <trkpt lat="48.14174" lon="11.59588">
        <ele>483.71233</ele>
        <time>2021-08-11T13:12:52.000Z</time>
      </trkpt>
      <trkpt lat="48.14178" lon="11.59588">
        <ele>483.612137</ele>
        <time>2021-08-11T13:12:55.000Z</time>
      </trkpt>
      <trkpt lat="48.1418" lon="11.59588">
        <ele>483.548115</ele>
        <time>2021-08-11T13:12:56.000Z</time>
      </trkpt>
      <trkpt lat="48.14187" lon="11.59588">
        <ele>483.367488</ele>
        <time>2021-08-11T13:12:58.000Z</time>
      </trkpt>
      <trkpt lat="48.14192" lon="11.59589">
        <ele>483.236042</ele>
        <time>2021-08-11T13:12:59.000Z</time>
      </trkpt>
      <trkpt lat="48.14197" lon="11.5959">
        <ele>483.084342</ele>
        <time>2021-08-11T13:13:00.000Z</time>
      </trkpt>
      <trkpt lat="48.14214" lon="11.59595">
        <ele>482.60801</ele>
        <time>2021-08-11T13:13:03.000Z</time>
      </trkpt>
      <trkpt lat="48.14226" lon="11.59599">
        <ele>482.264463</ele>
        <time>2021-08-11T13:13:05.000Z</time>
      </trkpt>
      <trkpt lat="48.14232" lon="11.59601">
        <ele>482.098651</ele>
        <time>2021-08-11T13:13:06.000Z</time>
      </trkpt>
      <trkpt lat="48.14241" lon="11.59604">
        <ele>481.826514</ele>
        <time>2021-08-11T13:13:08.000Z</time>
      </trkpt>
      <trkpt lat="48.14251" lon="11.59609">
        <ele>481.552572</ele>
        <time>2021-08-11T13:13:10.000Z</time>
      </trkpt>
      <trkpt lat="48.14258" lon="11.59615">
        <ele>481.309775</ele>
        <time>2021-08-11T13:13:12.000Z</time>
      </trkpt>
      <trkpt lat="48.14264" lon="11.59621">
        <ele>481.121817</ele>
        <time>2021-08-11T13:13:14.000Z</time>
      </trkpt>
      <trkpt lat="48.14276" lon="11.5963">
        <ele>480.738138</ele>
        <time>2021-08-11T13:13:17.000Z</time>
      </trkpt>
      <trkpt lat="48.14281" lon="11.59632">
        <ele>480.600158</ele>
        <time>2021-08-11T13:13:18.000Z</time>
      </trkpt>
      <trkpt lat="48.14286" lon="11.59634">
        <ele>480.464883</ele>
        <time>2021-08-11T13:13:19.000Z</time>
      </trkpt>
      <trkpt lat="48.14297" lon="11.5964">
        <ele>480.127885</ele>
        <time>2021-08-11T13:13:21.000Z</time>
      </trkpt>
      <trkpt lat="48.14312" lon="11.59645">
        <ele>479.69876</ele>
        <time>2021-08-11T13:13:24.000Z</time>
      </trkpt>
      <trkpt lat="48.14328" lon="11.59649">
        <ele>479.260718</ele>
        <time>2021-08-11T13:13:27.000Z</time>
      </trkpt>
      <trkpt lat="48.14333" lon="11.5965">
        <ele>479.120985</ele>
        <time>2021-08-11T13:13:28.000Z</time>
      </trkpt>
      <trkpt lat="48.14354" lon="11.59656">
        <ele>478.841076</ele>
        <time>2021-08-11T13:13:32.000Z</time>
      </trkpt>
      <trkpt lat="48.14365" lon="11.59661">
        <ele>478.852018</ele>
        <time>2021-08-11T13:13:34.000Z</time>
      </trkpt>
      <trkpt lat="48.1438" lon="11.59664">
        <ele>478.865084</ele>
        <time>2021-08-11T13:13:37.000Z</time>
      </trkpt>
      <trkpt lat="48.14391" lon="11.59668">
        <ele>478.875386</ele>
        <time>2021-08-11T13:13:39.000Z</time>
      </trkpt>
      <trkpt lat="48.14401" lon="11.59669">
        <ele>478.884705</ele>
        <time>2021-08-11T13:13:41.000Z</time>
      </trkpt>
      <trkpt lat="48.14408" lon="11.59671">
        <ele>478.891642</ele>
        <time>2021-08-11T13:13:43.000Z</time>
      </trkpt>
      <trkpt lat="48.14416" lon="11.59672">
        <ele>478.898917</ele>
        <time>2021-08-11T13:13:45.000Z</time>
      </trkpt>
      <trkpt lat="48.14426" lon="11.59674">
        <ele>478.907577</ele>
        <time>2021-08-11T13:13:47.000Z</time>
      </trkpt>
      <trkpt lat="48.14435" lon="11.59676">
        <ele>478.915653</ele>
        <time>2021-08-11T13:13:49.000Z</time>
      </trkpt>
      <trkpt lat="48.14439" lon="11.59676">
        <ele>478.919496</ele>
        <time>2021-08-11T13:13:50.000Z</time>
      </trkpt>
      <trkpt lat="48.14447" lon="11.59677">
        <ele>478.92659</ele>
        <time>2021-08-11T13:13:52.000Z</time>
      </trkpt>
      <trkpt lat="48.14456" lon="11.59679">
        <ele>478.934824</ele>
        <time>2021-08-11T13:13:54.000Z</time>
      </trkpt>
      <trkpt lat="48.14489" lon="11.59688">
        <ele>478.965449</ele>
        <time>2021-08-11T13:14:01.000Z</time>
      </trkpt>
      <trkpt lat="48.14521" lon="11.59694">
        <ele>478.994267</ele>
        <time>2021-08-11T13:14:08.000Z</time>
      </trkpt>
      <trkpt lat="48.14531" lon="11.59696">
        <ele>478.989074</ele>
        <time>2021-08-11T13:14:10.000Z</time>
      </trkpt>
      <trkpt lat="48.14549" lon="11.59701">
        <ele>478.979761</ele>
        <time>2021-08-11T13:14:14.000Z</time>
      </trkpt>
      <trkpt lat="48.14554" lon="11.59702">
        <ele>478.977279</ele>
        <time>2021-08-11T13:14:15.000Z</time>
      </trkpt>
      <trkpt lat="48.14573" lon="11.59707">
        <ele>478.967867</ele>
        <time>2021-08-11T13:14:19.000Z</time>
      </trkpt>
      <trkpt lat="48.14592" lon="11.59711">
        <ele>478.958322</ele>
        <time>2021-08-11T13:14:23.000Z</time>
      </trkpt>
      <trkpt lat="48.14601" lon="11.59713">
        <ele>478.953607</ele>
        <time>2021-08-11T13:14:25.000Z</time>
      </trkpt>
      <trkpt lat="48.14604" lon="11.59713">
        <ele>478.952195</ele>
        <time>2021-08-11T13:14:26.000Z</time>
      </trkpt>
      <trkpt lat="48.14613" lon="11.59712">
        <ele>478.947627</ele>
        <time>2021-08-11T13:14:28.000Z</time>
      </trkpt>
      <trkpt lat="48.1463" lon="11.59718">
        <ele>478.938709</ele>
        <time>2021-08-11T13:14:31.000Z</time>
      </trkpt>
      <trkpt lat="48.14639" lon="11.5972">
        <ele>478.934048</ele>
        <time>2021-08-11T13:14:33.000Z</time>
      </trkpt>
      <trkpt lat="48.14654" lon="11.59724">
        <ele>478.926438</ele>
        <time>2021-08-11T13:14:36.000Z</time>
      </trkpt>
      <trkpt lat="48.14664" lon="11.59728">
        <ele>478.921313</ele>
        <time>2021-08-11T13:14:38.000Z</time>
      </trkpt>
      <trkpt lat="48.14683" lon="11.59737">
        <ele>478.911176</ele>
        <time>2021-08-11T13:14:42.000Z</time>
      </trkpt>
      <trkpt lat="48.14688" lon="11.5974">
        <ele>478.908589</ele>
        <time>2021-08-11T13:14:43.000Z</time>
      </trkpt>
      <trkpt lat="48.14708" lon="11.59752">
        <ele>479.089028</ele>
        <time>2021-08-11T13:14:47.000Z</time>
      </trkpt>
      <trkpt lat="48.14718" lon="11.59757">
        <ele>479.239843</ele>
        <time>2021-08-11T13:14:49.000Z</time>
      </trkpt>
      <trkpt lat="48.14744" lon="11.59771">
        <ele>479.638177</ele>
        <time>2021-08-11T13:14:55.000Z</time>
      </trkpt>
      <trkpt lat="48.14748" lon="11.59775">
        <ele>479.715075</ele>
        <time>2021-08-11T13:14:56.000Z</time>
      </trkpt>
      <trkpt lat="48.14778" lon="11.59804">
        <ele>480.234056</ele>
        <time>2021-08-11T13:15:04.000Z</time>
      </trkpt>
      <trkpt lat="48.14791" lon="11.59828">
        <ele>480.529662</ele>
        <time>2021-08-11T13:15:09.000Z</time>
      </trkpt>
      <trkpt lat="48.14792" lon="11.5983">
        <ele>480.558772</ele>
        <time>2021-08-11T13:15:10.000Z</time>
      </trkpt>
      <trkpt lat="48.14795" lon="11.5984">
        <ele>480.661874</ele>
        <time>2021-08-11T13:15:13.000Z</time>
      </trkpt>
      <trkpt lat="48.14802" lon="11.59849">
        <ele>480.798068</ele>
        <time>2021-08-11T13:15:18.000Z</time>
      </trkpt>
      <trkpt lat="48.14813" lon="11.59856">
        <ele>480.975734</ele>
        <time>2021-08-11T13:15:22.000Z</time>
      </trkpt>
      <trkpt lat="48.14819" lon="11.59859">
        <ele>481.068319</ele>
        <time>2021-08-11T13:15:24.000Z</time>
      </trkpt>
      <trkpt lat="48.14832" lon="11.59868">
        <ele>481.273808</ele>
        <time>2021-08-11T13:15:28.000Z</time>
      </trkpt>
      <trkpt lat="48.1484" lon="11.59876">
        <ele>481.41605</ele>
        <time>2021-08-11T13:15:31.000Z</time>
      </trkpt>
      <trkpt lat="48.14846" lon="11.59881">
        <ele>481.511636</ele>
        <time>2021-08-11T13:15:34.000Z</time>
      </trkpt>
      <trkpt lat="48.1485" lon="11.59884">
        <ele>481.584995</ele>
        <time>2021-08-11T13:15:36.000Z</time>
      </trkpt>
      <trkpt lat="48.14868" lon="11.59897">
        <ele>481.883082</ele>
        <time>2021-08-11T13:15:43.000Z</time>
      </trkpt>
      <trkpt lat="48.14874" lon="11.59904">
        <ele>482.000873</ele>
        <time>2021-08-11T13:15:46.000Z</time>
      </trkpt>
      <trkpt lat="48.14875" lon="11.59909">
        <ele>482.059591</ele>
        <time>2021-08-11T13:15:48.000Z</time>
      </trkpt>
      <trkpt lat="48.14876" lon="11.59914">
        <ele>482.112304</ele>
        <time>2021-08-11T13:15:49.000Z</time>
      </trkpt>
      <trkpt lat="48.14872" lon="11.59927">
        <ele>482.256468</ele>
        <time>2021-08-11T13:15:52.000Z</time>
      </trkpt>
      <trkpt lat="48.14871" lon="11.5996">
        <ele>482.595411</ele>
        <time>2021-08-11T13:15:58.000Z</time>
      </trkpt>
      <trkpt lat="48.14873" lon="11.59996">
        <ele>482.960972</ele>
        <time>2021-08-11T13:16:03.000Z</time>
      </trkpt>
      <trkpt lat="48.14873" lon="11.60009">
        <ele>483.09267</ele>
        <time>2021-08-11T13:16:05.000Z</time>
      </trkpt>
      <trkpt lat="48.14874" lon="11.60036">
        <ele>483.366665</ele>
        <time>2021-08-11T13:16:09.000Z</time>
      </trkpt>
      <trkpt lat="48.14874" lon="11.60051">
        <ele>483.520437</ele>
        <time>2021-08-11T13:16:11.000Z</time>
      </trkpt>
      <trkpt lat="48.14875" lon="11.60058">
        <ele>483.587322</ele>
        <time>2021-08-11T13:16:12.000Z</time>
      </trkpt>
      <trkpt lat="48.14879" lon="11.60096">
        <ele>483.978464</ele>
        <time>2021-08-11T13:16:17.000Z</time>
      </trkpt>
      <trkpt lat="48.1488" lon="11.60107">
        <ele>484.099009</ele>
        <time>2021-08-11T13:16:19.000Z</time>
      </trkpt>
      <trkpt lat="48.1488" lon="11.60123">
        <ele>484.256187</ele>
        <time>2021-08-11T13:16:21.000Z</time>
      </trkpt>
      <trkpt lat="48.14881" lon="11.6013">
        <ele>484.387748</ele>
        <time>2021-08-11T13:16:22.000Z</time>
      </trkpt>
      <trkpt lat="48.14882" lon="11.60136">
        <ele>484.523735</ele>
        <time>2021-08-11T13:16:23.000Z</time>
      </trkpt>
      <trkpt lat="48.14883" lon="11.60156">
        <ele>484.918542</ele>
        <time>2021-08-11T13:16:26.000Z</time>
      </trkpt>
      <trkpt lat="48.14884" lon="11.60176">
        <ele>485.304502</ele>
        <time>2021-08-11T13:16:29.000Z</time>
      </trkpt>
      <trkpt lat="48.14884" lon="11.60182">
        <ele>485.437503</ele>
        <time>2021-08-11T13:16:30.000Z</time>
      </trkpt>
      <trkpt lat="48.14885" lon="11.60189">
        <ele>485.564888</ele>
        <time>2021-08-11T13:16:31.000Z</time>
      </trkpt>
      <trkpt lat="48.14885" lon="11.60194">
        <ele>485.665374</ele>
        <time>2021-08-11T13:16:32.000Z</time>
      </trkpt>
      <trkpt lat="48.14887" lon="11.60199">
        <ele>485.784686</ele>
        <time>2021-08-11T13:16:33.000Z</time>
      </trkpt>
      <trkpt lat="48.1489" lon="11.60213">
        <ele>486.070924</ele>
        <time>2021-08-11T13:16:35.000Z</time>
      </trkpt>
      <trkpt lat="48.14894" lon="11.60229">
        <ele>486.412717</ele>
        <time>2021-08-11T13:16:38.000Z</time>
      </trkpt>
      <trkpt lat="48.14897" lon="11.60245">
        <ele>486.730214</ele>
        <time>2021-08-11T13:16:41.000Z</time>
      </trkpt>
      <trkpt lat="48.14902" lon="11.6027">
        <ele>487.250879</ele>
        <time>2021-08-11T13:16:46.000Z</time>
      </trkpt>
      <trkpt lat="48.14903" lon="11.60275">
        <ele>487.354974</ele>
        <time>2021-08-11T13:16:47.000Z</time>
      </trkpt>
      <trkpt lat="48.14905" lon="11.60285">
        <ele>487.55976</ele>
        <time>2021-08-11T13:16:49.000Z</time>
      </trkpt>
      <trkpt lat="48.14908" lon="11.60301">
        <ele>487.89655</ele>
        <time>2021-08-11T13:16:52.000Z</time>
      </trkpt>
      <trkpt lat="48.14911" lon="11.60311">
        <ele>488.110499</ele>
        <time>2021-08-11T13:16:54.000Z</time>
      </trkpt>
      <trkpt lat="48.1492" lon="11.60342">
        <ele>488.773874</ele>
        <time>2021-08-11T13:17:01.000Z</time>
      </trkpt>
      <trkpt lat="48.14923" lon="11.60351">
        <ele>488.970627</ele>
        <time>2021-08-11T13:17:03.000Z</time>
      </trkpt>
      <trkpt lat="48.1493" lon="11.60384">
        <ele>489.675845</ele>
        <time>2021-08-11T13:17:09.000Z</time>
      </trkpt>
      <trkpt lat="48.14932" lon="11.60397">
        <ele>489.936717</ele>
        <time>2021-08-11T13:17:11.000Z</time>
      </trkpt>
      <trkpt lat="48.14935" lon="11.60408">
        <ele>490.172788</ele>
        <time>2021-08-11T13:17:14.000Z</time>
      </trkpt>
      <trkpt lat="48.14937" lon="11.60413">
        <ele>490.2911</ele>
        <time>2021-08-11T13:17:15.000Z</time>
      </trkpt>
      <trkpt lat="48.14939" lon="11.60423">
        <ele>490.501427</ele>
        <time>2021-08-11T13:17:17.000Z</time>
      </trkpt>
      <trkpt lat="48.1495" lon="11.60459">
        <ele>491.31397</ele>
        <time>2021-08-11T13:17:24.000Z</time>
      </trkpt>
      <trkpt lat="48.14951" lon="11.60464">
        <ele>491.410115</ele>
        <time>2021-08-11T13:17:25.000Z</time>
      </trkpt>
      <trkpt lat="48.14957" lon="11.60493">
        <ele>492.022212</ele>
        <time>2021-08-11T13:17:31.000Z</time>
      </trkpt>
      <trkpt lat="48.14959" lon="11.60497">
        <ele>492.119544</ele>
        <time>2021-08-11T13:17:32.000Z</time>
      </trkpt>
      <trkpt lat="48.14964" lon="11.60517">
        <ele>492.561987</ele>
        <time>2021-08-11T13:17:36.000Z</time>
      </trkpt>
      <trkpt lat="48.14966" lon="11.60523">
        <ele>492.682881</ele>
        <time>2021-08-11T13:17:37.000Z</time>
      </trkpt>
      <trkpt lat="48.14967" lon="11.60535">
        <ele>492.927055</ele>
        <time>2021-08-11T13:17:39.000Z</time>
      </trkpt>
      <trkpt lat="48.14968" lon="11.6054">
        <ele>493.02981</ele>
        <time>2021-08-11T13:17:40.000Z</time>
      </trkpt>
      <trkpt lat="48.14969" lon="11.60545">
        <ele>493.143015</ele>
        <time>2021-08-11T13:17:41.000Z</time>
      </trkpt>
      <trkpt lat="48.14971" lon="11.6055">
        <ele>493.255903</ele>
        <time>2021-08-11T13:17:42.000Z</time>
      </trkpt>
      <trkpt lat="48.14972" lon="11.60555">
        <ele>493.361478</ele>
        <time>2021-08-11T13:17:43.000Z</time>
      </trkpt>
      <trkpt lat="48.14973" lon="11.60559">
        <ele>493.452631</ele>
        <time>2021-08-11T13:17:44.000Z</time>
      </trkpt>
      <trkpt lat="48.14975" lon="11.60564">
        <ele>493.554377</ele>
        <time>2021-08-11T13:17:45.000Z</time>
      </trkpt>
      <trkpt lat="48.14976" lon="11.60569">
        <ele>493.662917</ele>
        <time>2021-08-11T13:17:46.000Z</time>
      </trkpt>
      <trkpt lat="48.14978" lon="11.60571">
        <ele>493.732346</ele>
        <time>2021-08-11T13:17:47.000Z</time>
      </trkpt>
      <trkpt lat="48.1498" lon="11.60576">
        <ele>493.8586</ele>
        <time>2021-08-11T13:17:48.000Z</time>
      </trkpt>
      <trkpt lat="48.14982" lon="11.60579">
        <ele>493.939902</ele>
        <time>2021-08-11T13:17:49.000Z</time>
      </trkpt>
      <trkpt lat="48.14985" lon="11.60583">
        <ele>494.065</ele>
        <time>2021-08-11T13:17:50.000Z</time>
      </trkpt>
      <trkpt lat="48.14986" lon="11.60587">
        <ele>494.155292</ele>
        <time>2021-08-11T13:17:51.000Z</time>
      </trkpt>
      <trkpt lat="48.14989" lon="11.60598">
        <ele>494.401294</ele>
        <time>2021-08-11T13:17:53.000Z</time>
      </trkpt>
      <trkpt lat="48.14991" lon="11.60603">
        <ele>494.524238</ele>
        <time>2021-08-11T13:17:54.000Z</time>
      </trkpt>
      <trkpt lat="48.14992" lon="11.60606">
        <ele>494.585847</ele>
        <time>2021-08-11T13:17:55.000Z</time>
      </trkpt>
      <trkpt lat="48.14994" lon="11.60611">
        <ele>494.696921</ele>
        <time>2021-08-11T13:17:56.000Z</time>
      </trkpt>
      <trkpt lat="48.14996" lon="11.60617">
        <ele>494.834375</ele>
        <time>2021-08-11T13:17:57.000Z</time>
      </trkpt>
      <trkpt lat="48.14998" lon="11.60627">
        <ele>495.046283</ele>
        <time>2021-08-11T13:18:00.000Z</time>
      </trkpt>
      <trkpt lat="48.15004" lon="11.60634">
        <ele>495.167973</ele>
        <time>2021-08-11T13:18:02.000Z</time>
      </trkpt>
      <trkpt lat="48.15011" lon="11.60644">
        <ele>495.317213</ele>
        <time>2021-08-11T13:18:05.000Z</time>
      </trkpt>
      <trkpt lat="48.15014" lon="11.60653">
        <ele>495.412372</ele>
        <time>2021-08-11T13:18:07.000Z</time>
      </trkpt>
      <trkpt lat="48.15024" lon="11.60674">
        <ele>495.683692</ele>
        <time>2021-08-11T13:18:13.000Z</time>
      </trkpt>
      <trkpt lat="48.15026" lon="11.60678">
        <ele>495.735541</ele>
        <time>2021-08-11T13:18:14.000Z</time>
      </trkpt>
      <trkpt lat="48.15036" lon="11.60693">
        <ele>495.952741</ele>
        <time>2021-08-11T13:18:19.000Z</time>
      </trkpt>
      <trkpt lat="48.15045" lon="11.60708">
        <ele>496.164089</ele>
        <time>2021-08-11T13:18:23.000Z</time>
      </trkpt>
      <trkpt lat="48.15047" lon="11.60718">
        <ele>496.270113</ele>
        <time>2021-08-11T13:18:25.000Z</time>
      </trkpt>
      <trkpt lat="48.15059" lon="11.60763">
        <ele>496.768408</ele>
        <time>2021-08-11T13:18:34.000Z</time>
      </trkpt>
      <trkpt lat="48.15059" lon="11.60766">
        <ele>496.80155</ele>
        <time>2021-08-11T13:18:35.000Z</time>
      </trkpt>
      <trkpt lat="48.15059" lon="11.60767">
        <ele>496.80597</ele>
        <time>2021-08-11T13:18:37.000Z</time>
      </trkpt>
      <trkpt lat="48.15059" lon="11.60767">
        <ele>496.80597</ele>
        <time>2021-08-11T13:18:46.000Z</time>
      </trkpt>
      <trkpt lat="48.15059" lon="11.60768">
        <ele>496.823164</ele>
        <time>2021-08-11T13:18:57.000Z</time>
      </trkpt>
      <trkpt lat="48.15059" lon="11.60768">
        <ele>496.823164</ele>
        <time>2021-08-11T13:19:04.000Z</time>
      </trkpt>
      <trkpt lat="48.15059" lon="11.60768">
        <ele>496.824714</ele>
        <time>2021-08-11T13:19:06.000Z</time>
      </trkpt>
      <trkpt lat="48.1506" lon="11.60769">
        <ele>496.837167</ele>
        <time>2021-08-11T13:19:08.000Z</time>
      </trkpt>
      <trkpt lat="48.1506" lon="11.60773">
        <ele>496.876223</ele>
        <time>2021-08-11T13:19:12.000Z</time>
      </trkpt>
      <trkpt lat="48.1506" lon="11.60773">
        <ele>496.876223</ele>
        <time>2021-08-11T13:19:14.000Z</time>
      </trkpt>
      <trkpt lat="48.1506" lon="11.60773">
        <ele>496.876223</ele>
        <time>2021-08-11T13:19:20.000Z</time>
      </trkpt>
      <trkpt lat="48.1506" lon="11.60773">
        <ele>496.876223</ele>
        <time>2021-08-11T13:19:23.000Z</time>
      </trkpt>
      <trkpt lat="48.1506" lon="11.60773">
        <ele>496.876223</ele>
        <time>2021-08-11T13:19:31.000Z</time>
      </trkpt>
      <trkpt lat="48.1506" lon="11.60773">
        <ele>496.876223</ele>
        <time>2021-08-11T13:19:33.000Z</time>
      </trkpt>
      <trkpt lat="48.1506" lon="11.60773">
        <ele>496.876223</ele>
        <time>2021-08-11T13:19:39.000Z</time>
      </trkpt>
      <trkpt lat="48.1506" lon="11.60773">
        <ele>496.876223</ele>
        <time>2021-08-11T13:19:43.000Z</time>
      </trkpt>
      <trkpt lat="48.1506" lon="11.60773">
        <ele>496.876223</ele>
        <time>2021-08-11T13:20:02.000Z</time>
      </trkpt>
      <trkpt lat="48.1506" lon="11.60773">
        <ele>496.876223</ele>
        <time>2021-08-11T13:20:09.000Z</time>
      </trkpt>
      <trkpt lat="48.1506" lon="11.60773">
        <ele>496.876223</ele>
        <time>2021-08-11T13:20:12.000Z</time>
      </trkpt>
      <trkpt lat="48.15061" lon="11.60778">
        <ele>496.927506</ele>
        <time>2021-08-11T13:20:16.000Z</time>
      </trkpt>
      <trkpt lat="48.15061" lon="11.60781">
        <ele>496.959156</ele>
        <time>2021-08-11T13:20:17.000Z</time>
      </trkpt>
      <trkpt lat="48.15066" lon="11.60818">
        <ele>497.351305</ele>
        <time>2021-08-11T13:20:24.000Z</time>
      </trkpt>
      <trkpt lat="48.15066" lon="11.60851">
        <ele>497.6959</ele>
        <time>2021-08-11T13:20:29.000Z</time>
      </trkpt>
      <trkpt lat="48.15067" lon="11.60884">
        <ele>497.756714</ele>
        <time>2021-08-11T13:20:34.000Z</time>
      </trkpt>
      <trkpt lat="48.15068" lon="11.60896">
        <ele>497.711246</ele>
        <time>2021-08-11T13:20:36.000Z</time>
      </trkpt>
      <trkpt lat="48.15071" lon="11.60908">
        <ele>497.661289</ele>
        <time>2021-08-11T13:20:38.000Z</time>
      </trkpt>
      <trkpt lat="48.15075" lon="11.60924">
        <ele>497.592426</ele>
        <time>2021-08-11T13:20:42.000Z</time>
      </trkpt>
      <trkpt lat="48.15079" lon="11.60942">
        <ele>497.520293</ele>
        <time>2021-08-11T13:20:48.000Z</time>
      </trkpt>
      <trkpt lat="48.15083" lon="11.60967">
        <ele>497.420589</ele>
        <time>2021-08-11T13:20:53.000Z</time>
      </trkpt>
      <trkpt lat="48.15092" lon="11.61003">
        <ele>497.271039</ele>
        <time>2021-08-11T13:20:59.000Z</time>
      </trkpt>
      <trkpt lat="48.15099" lon="11.6102">
        <ele>497.194406</ele>
        <time>2021-08-11T13:21:02.000Z</time>
      </trkpt>
      <trkpt lat="48.15107" lon="11.61044">
        <ele>497.090339</ele>
        <time>2021-08-11T13:21:05.000Z</time>
      </trkpt>
      <trkpt lat="48.15118" lon="11.61087">
        <ele>496.907725</ele>
        <time>2021-08-11T13:21:11.000Z</time>
      </trkpt>
      <trkpt lat="48.15121" lon="11.61102">
        <ele>496.848559</ele>
        <time>2021-08-11T13:21:13.000Z</time>
      </trkpt>
      <trkpt lat="48.15127" lon="11.61124">
        <ele>496.744725</ele>
        <time>2021-08-11T13:21:16.000Z</time>
      </trkpt>
      <trkpt lat="48.15133" lon="11.61142">
        <ele>496.62424</ele>
        <time>2021-08-11T13:21:19.000Z</time>
      </trkpt>
      <trkpt lat="48.1514" lon="11.61154">
        <ele>496.535184</ele>
        <time>2021-08-11T13:21:21.000Z</time>
      </trkpt>
      <trkpt lat="48.15148" lon="11.61174">
        <ele>496.397933</ele>
        <time>2021-08-11T13:21:24.000Z</time>
      </trkpt>
      <trkpt lat="48.1515" lon="11.6118">
        <ele>496.363328</ele>
        <time>2021-08-11T13:21:25.000Z</time>
      </trkpt>
      <trkpt lat="48.15154" lon="11.61193">
        <ele>496.280159</ele>
        <time>2021-08-11T13:21:27.000Z</time>
      </trkpt>
      <trkpt lat="48.15157" lon="11.612">
        <ele>496.233953</ele>
        <time>2021-08-11T13:21:28.000Z</time>
      </trkpt>
      <trkpt lat="48.1516" lon="11.61207">
        <ele>496.185013</ele>
        <time>2021-08-11T13:21:29.000Z</time>
      </trkpt>
      <trkpt lat="48.15166" lon="11.6122">
        <ele>496.094334</ele>
        <time>2021-08-11T13:21:31.000Z</time>
      </trkpt>
      <trkpt lat="48.15171" lon="11.61233">
        <ele>496.00443</ele>
        <time>2021-08-11T13:21:33.000Z</time>
      </trkpt>
      <trkpt lat="48.15173" lon="11.61241">
        <ele>495.955589</ele>
        <time>2021-08-11T13:21:34.000Z</time>
      </trkpt>
      <trkpt lat="48.15174" lon="11.61248">
        <ele>495.912119</ele>
        <time>2021-08-11T13:21:35.000Z</time>
      </trkpt>
      <trkpt lat="48.15174" lon="11.61265">
        <ele>495.816953</ele>
        <time>2021-08-11T13:21:37.000Z</time>
      </trkpt>
      <trkpt lat="48.15174" lon="11.61279">
        <ele>495.737321</ele>
        <time>2021-08-11T13:21:39.000Z</time>
      </trkpt>
      <trkpt lat="48.15175" lon="11.61285">
        <ele>495.700335</ele>
        <time>2021-08-11T13:21:40.000Z</time>
      </trkpt>
      <trkpt lat="48.15178" lon="11.61291">
        <ele>495.65523</ele>
        <time>2021-08-11T13:21:43.000Z</time>
      </trkpt>
      <trkpt lat="48.15189" lon="11.61289">
        <ele>495.561228</ele>
        <time>2021-08-11T13:21:47.000Z</time>
      </trkpt>
      <trkpt lat="48.15195" lon="11.61288">
        <ele>495.510877</ele>
        <time>2021-08-11T13:21:52.000Z</time>
      </trkpt>
      <trkpt lat="48.15198" lon="11.61287">
        <ele>495.485361</ele>
        <time>2021-08-11T13:21:56.000Z</time>
      </trkpt>
      <trkpt lat="48.15201" lon="11.61283">
        <ele>495.448969</ele>
        <time>2021-08-11T13:21:58.000Z</time>
      </trkpt>
      <trkpt lat="48.15205" lon="11.61275">
        <ele>495.38762</ele>
        <time>2021-08-11T13:22:03.000Z</time>
      </trkpt>
      <trkpt lat="48.15206" lon="11.6127">
        <ele>495.359646</ele>
        <time>2021-08-11T13:22:07.000Z</time>
      </trkpt>
      <trkpt lat="48.15209" lon="11.61266">
        <ele>495.328787</ele>
        <time>2021-08-11T13:22:09.000Z</time>
      </trkpt>
      <trkpt lat="48.15215" lon="11.61268">
        <ele>495.275524</ele>
        <time>2021-08-11T13:22:12.000Z</time>
      </trkpt>
      <trkpt lat="48.15217" lon="11.61272">
        <ele>495.251246</ele>
        <time>2021-08-11T13:22:13.000Z</time>
      </trkpt>
      <trkpt lat="48.1522" lon="11.61279">
        <ele>495.207638</ele>
        <time>2021-08-11T13:22:15.000Z</time>
      </trkpt>
      <trkpt lat="48.15226" lon="11.61289">
        <ele>495.158723</ele>
        <time>2021-08-11T13:22:17.000Z</time>
      </trkpt>
      <trkpt lat="48.15231" lon="11.61298">
        <ele>495.113068</ele>
        <time>2021-08-11T13:22:19.000Z</time>
      </trkpt>
      <trkpt lat="48.15234" lon="11.61303">
        <ele>495.088484</ele>
        <time>2021-08-11T13:22:20.000Z</time>
      </trkpt>
      <trkpt lat="48.15247" lon="11.6133">
        <ele>494.959485</ele>
        <time>2021-08-11T13:22:25.000Z</time>
      </trkpt>
      <trkpt lat="48.15252" lon="11.61349">
        <ele>494.880594</ele>
        <time>2021-08-11T13:22:28.000Z</time>
      </trkpt>
      <trkpt lat="48.15258" lon="11.61359">
        <ele>494.831868</ele>
        <time>2021-08-11T13:22:30.000Z</time>
      </trkpt>
      <trkpt lat="48.15267" lon="11.6137">
        <ele>494.765359</ele>
        <time>2021-08-11T13:22:34.000Z</time>
      </trkpt>
      <trkpt lat="48.15268" lon="11.61371">
        <ele>494.757807</ele>
        <time>2021-08-11T13:22:38.000Z</time>
      </trkpt>
      <trkpt lat="48.15268" lon="11.61371">
        <ele>494.757807</ele>
        <time>2021-08-11T13:22:46.000Z</time>
      </trkpt>
      <trkpt lat="48.15268" lon="11.61371">
        <ele>494.757807</ele>
        <time>2021-08-11T13:22:52.000Z</time>
      </trkpt>
      <trkpt lat="48.15268" lon="11.61371">
        <ele>494.757807</ele>
        <time>2021-08-11T13:22:53.000Z</time>
      </trkpt>
      <trkpt lat="48.15268" lon="11.61371">
        <ele>494.757807</ele>
        <time>2021-08-11T13:22:55.000Z</time>
      </trkpt>
      <trkpt lat="48.15268" lon="11.61371">
        <ele>494.757807</ele>
        <time>2021-08-11T13:22:58.000Z</time>
      </trkpt>
      <trkpt lat="48.15268" lon="11.61371">
        <ele>494.757807</ele>
        <time>2021-08-11T13:23:01.000Z</time>
      </trkpt>
      <trkpt lat="48.15268" lon="11.61371">
        <ele>494.757807</ele>
        <time>2021-08-11T13:23:11.000Z</time>
      </trkpt>
      <trkpt lat="48.15269" lon="11.61373">
        <ele>494.748221</ele>
        <time>2021-08-11T13:23:15.000Z</time>
      </trkpt>
      <trkpt lat="48.15272" lon="11.61378">
        <ele>494.722103</ele>
        <time>2021-08-11T13:23:17.000Z</time>
      </trkpt>
      <trkpt lat="48.15285" lon="11.61404">
        <ele>494.599896</ele>
        <time>2021-08-11T13:23:24.000Z</time>
      </trkpt>
      <trkpt lat="48.15299" lon="11.61422">
        <ele>494.491823</ele>
        <time>2021-08-11T13:23:29.000Z</time>
      </trkpt>
      <trkpt lat="48.15313" lon="11.61445">
        <ele>494.375757</ele>
        <time>2021-08-11T13:23:34.000Z</time>
      </trkpt>
      <trkpt lat="48.15319" lon="11.61454">
        <ele>494.328102</ele>
        <time>2021-08-11T13:23:36.000Z</time>
      </trkpt>
      <trkpt lat="48.15325" lon="11.61462">
        <ele>494.280015</ele>
        <time>2021-08-11T13:23:38.000Z</time>
      </trkpt>
      <trkpt lat="48.15331" lon="11.61471">
        <ele>494.233005</ele>
        <time>2021-08-11T13:23:40.000Z</time>
      </trkpt>
      <trkpt lat="48.15334" lon="11.61475">
        <ele>494.20828</ele>
        <time>2021-08-11T13:23:41.000Z</time>
      </trkpt>
      <trkpt lat="48.15351" lon="11.61493">
        <ele>494.098563</ele>
        <time>2021-08-11T13:23:46.000Z</time>
      </trkpt>
      <trkpt lat="48.15361" lon="11.61505">
        <ele>494.030504</ele>
        <time>2021-08-11T13:23:49.000Z</time>
      </trkpt>
      <trkpt lat="48.15365" lon="11.61508">
        <ele>494.006265</ele>
        <time>2021-08-11T13:23:50.000Z</time>
      </trkpt>
      <trkpt lat="48.1538" lon="11.6152">
        <ele>493.914836</ele>
        <time>2021-08-11T13:23:54.000Z</time>
      </trkpt>
      <trkpt lat="48.15406" lon="11.61542">
        <ele>493.756843</ele>
        <time>2021-08-11T13:24:01.000Z</time>
      </trkpt>
      <trkpt lat="48.15413" lon="11.61552">
        <ele>493.706642</ele>
        <time>2021-08-11T13:24:03.000Z</time>
      </trkpt>
      <trkpt lat="48.15421" lon="11.61564">
        <ele>493.643889</ele>
        <time>2021-08-11T13:24:06.000Z</time>
      </trkpt>
      <trkpt lat="48.15425" lon="11.61568">
        <ele>493.621273</ele>
        <time>2021-08-11T13:24:07.000Z</time>
      </trkpt>
      <trkpt lat="48.15444" lon="11.61585">
        <ele>493.500164</ele>
        <time>2021-08-11T13:24:12.000Z</time>
      </trkpt>
      <trkpt lat="48.15459" lon="11.61599">
        <ele>493.405562</ele>
        <time>2021-08-11T13:24:16.000Z</time>
      </trkpt>
      <trkpt lat="48.15477" lon="11.61614">
        <ele>493.296427</ele>
        <time>2021-08-11T13:24:20.000Z</time>
      </trkpt>
      <trkpt lat="48.15481" lon="11.61619">
        <ele>493.268047</ele>
        <time>2021-08-11T13:24:21.000Z</time>
      </trkpt>
      <trkpt lat="48.15522" lon="11.61657">
        <ele>493.149035</ele>
        <time>2021-08-11T13:24:30.000Z</time>
      </trkpt>
      <trkpt lat="48.15541" lon="11.61674">
        <ele>493.10047</ele>
        <time>2021-08-11T13:24:35.000Z</time>
      </trkpt>
      <trkpt lat="48.15552" lon="11.61686">
        <ele>493.069863</ele>
        <time>2021-08-11T13:24:38.000Z</time>
      </trkpt>
      <trkpt lat="48.15586" lon="11.61718">
        <ele>492.98331</ele>
        <time>2021-08-11T13:24:47.000Z</time>
      </trkpt>
      <trkpt lat="48.15615" lon="11.61743">
        <ele>492.910037</ele>
        <time>2021-08-11T13:24:56.000Z</time>
      </trkpt>
      <trkpt lat="48.1562" lon="11.61743">
        <ele>492.899132</ele>
        <time>2021-08-11T13:24:59.000Z</time>
      </trkpt>
      <trkpt lat="48.15623" lon="11.61746">
        <ele>492.890579</ele>
        <time>2021-08-11T13:25:01.000Z</time>
      </trkpt>
      <trkpt lat="48.15632" lon="11.61755">
        <ele>492.868202</ele>
        <time>2021-08-11T13:25:05.000Z</time>
      </trkpt>
      <trkpt lat="48.15637" lon="11.6176">
        <ele>492.854912</ele>
        <time>2021-08-11T13:25:07.000Z</time>
      </trkpt>
      <trkpt lat="48.15648" lon="11.61774">
        <ele>492.808395</ele>
        <time>2021-08-11T13:25:11.000Z</time>
      </trkpt>
      <trkpt lat="48.15651" lon="11.61778">
        <ele>492.794583</ele>
        <time>2021-08-11T13:25:12.000Z</time>
      </trkpt>
      <trkpt lat="48.15675" lon="11.61798">
        <ele>492.702443</ele>
        <time>2021-08-11T13:25:19.000Z</time>
      </trkpt>
      <trkpt lat="48.1571" lon="11.61832">
        <ele>492.564464</ele>
        <time>2021-08-11T13:25:29.000Z</time>
      </trkpt>
      <trkpt lat="48.15733" lon="11.61854">
        <ele>492.471922</ele>
        <time>2021-08-11T13:25:36.000Z</time>
      </trkpt>
      <trkpt lat="48.15737" lon="11.61857">
        <ele>492.457907</ele>
        <time>2021-08-11T13:25:37.000Z</time>
      </trkpt>
      <trkpt lat="48.15754" lon="11.61873">
        <ele>492.389955</ele>
        <time>2021-08-11T13:25:42.000Z</time>
      </trkpt>
      <trkpt lat="48.15761" lon="11.61878">
        <ele>492.364625</ele>
        <time>2021-08-11T13:25:44.000Z</time>
      </trkpt>
      <trkpt lat="48.15771" lon="11.61887">
        <ele>492.323462</ele>
        <time>2021-08-11T13:25:47.000Z</time>
      </trkpt>
      <trkpt lat="48.15775" lon="11.6189">
        <ele>492.309169</ele>
        <time>2021-08-11T13:25:48.000Z</time>
      </trkpt>
      <trkpt lat="48.15779" lon="11.61893">
        <ele>492.294387</ele>
        <time>2021-08-11T13:25:49.000Z</time>
      </trkpt>
      <trkpt lat="48.15802" lon="11.61913">
        <ele>492.224619</ele>
        <time>2021-08-11T13:25:55.000Z</time>
      </trkpt>
      <trkpt lat="48.15816" lon="11.61927">
        <ele>492.192255</ele>
        <time>2021-08-11T13:25:59.000Z</time>
      </trkpt>
      <trkpt lat="48.15827" lon="11.61938">
        <ele>492.167543</ele>
        <time>2021-08-11T13:26:02.000Z</time>
      </trkpt>
      <trkpt lat="48.15853" lon="11.61961">
        <ele>492.111398</ele>
        <time>2021-08-11T13:26:09.000Z</time>
      </trkpt>
      <trkpt lat="48.15857" lon="11.61966">
        <ele>492.101977</ele>
        <time>2021-08-11T13:26:11.000Z</time>
      </trkpt>
      <trkpt lat="48.1586" lon="11.61969">
        <ele>492.095044</ele>
        <time>2021-08-11T13:26:15.000Z</time>
      </trkpt>
      <trkpt lat="48.15861" lon="11.6197">
        <ele>492.092729</ele>
        <time>2021-08-11T13:26:17.000Z</time>
      </trkpt>
      <trkpt lat="48.15866" lon="11.61977">
        <ele>492.079244</ele>
        <time>2021-08-11T13:26:20.000Z</time>
      </trkpt>
      <trkpt lat="48.15878" lon="11.61986">
        <ele>492.054747</ele>
        <time>2021-08-11T13:26:24.000Z</time>
      </trkpt>
      <trkpt lat="48.15884" lon="11.61992">
        <ele>492.040505</ele>
        <time>2021-08-11T13:26:26.000Z</time>
      </trkpt>
      <trkpt lat="48.15916" lon="11.62023">
        <ele>491.969922</ele>
        <time>2021-08-11T13:26:35.000Z</time>
      </trkpt>
      <trkpt lat="48.15924" lon="11.6203">
        <ele>491.951211</ele>
        <time>2021-08-11T13:26:37.000Z</time>
      </trkpt>
      <trkpt lat="48.15932" lon="11.62036">
        <ele>491.934348</ele>
        <time>2021-08-11T13:26:39.000Z</time>
      </trkpt>
      <trkpt lat="48.15936" lon="11.62039">
        <ele>491.926367</ele>
        <time>2021-08-11T13:26:40.000Z</time>
      </trkpt>
      <trkpt lat="48.15953" lon="11.62056">
        <ele>491.909604</ele>
        <time>2021-08-11T13:26:45.000Z</time>
      </trkpt>
      <trkpt lat="48.15956" lon="11.62058">
        <ele>491.909604</ele>
        <time>2021-08-11T13:26:46.000Z</time>
      </trkpt>
      <trkpt lat="48.15959" lon="11.62056">
        <ele>491.909604</ele>
        <time>2021-08-11T13:26:47.000Z</time>
      </trkpt>
      <trkpt lat="48.15963" lon="11.62052">
        <ele>491.909604</ele>
        <time>2021-08-11T13:26:49.000Z</time>
      </trkpt>
      <trkpt lat="48.1597" lon="11.62023">
        <ele>491.909604</ele>
        <time>2021-08-11T13:26:55.000Z</time>
      </trkpt>
      <trkpt lat="48.1597" lon="11.62005">
        <ele>491.909604</ele>
        <time>2021-08-11T13:26:59.000Z</time>
      </trkpt>
      <trkpt lat="48.15972" lon="11.61958">
        <ele>491.909604</ele>
        <time>2021-08-11T13:27:08.000Z</time>
      </trkpt>
      <trkpt lat="48.15971" lon="11.61949">
        <ele>491.909604</ele>
        <time>2021-08-11T13:27:12.000Z</time>
      </trkpt>
    </trkseg>
  </trk>
</gpx>